<?xml version="1.0" encoding="UTF-8" standalone="no" ?>
<gpx xmlns="http://www.topografix.com/GPX/1/1" xmlns:xsi="http://www.w3.org/2001/XMLSchema-instance" xsi:schemaLocation="http://www.topografix.com/GPX/1/1 http://www.topografix.com/GPX/1/1/gpx.xsd" version="1.1" creator="VisuGPX - https://www.visugpx.com">
  <metadata>
    <name>mont roland</name>
    <desc><![CDATA[rando humide terminée pratiquement de nuit]]></desc>
  </metadata>
  <trk>
    <name><![CDATA[mont roland 2]]></name>
    <trkseg>
      <trkpt lat="47.12484" lon="5.47426">
        <ele>326</ele>
        <time>2012-11-29T13:43:31Z</time>
      </trkpt>
      <trkpt lat="47.12484" lon="5.47425">
        <ele>330</ele>
        <time>2012-11-29T13:43:47Z</time>
      </trkpt>
      <trkpt lat="47.12484" lon="5.47425">
        <ele>333</ele>
        <time>2012-11-29T13:44:06Z</time>
      </trkpt>
      <trkpt lat="47.12484" lon="5.47425">
        <ele>334</ele>
        <time>2012-11-29T13:44:10Z</time>
      </trkpt>
      <trkpt lat="47.12478" lon="5.47456">
        <ele>335</ele>
        <time>2012-11-29T13:44:27Z</time>
      </trkpt>
      <trkpt lat="47.12482" lon="5.4746">
        <ele>335</ele>
        <time>2012-11-29T13:44:38Z</time>
      </trkpt>
      <trkpt lat="47.1248" lon="5.47459">
        <ele>336</ele>
        <time>2012-11-29T13:44:44Z</time>
      </trkpt>
      <trkpt lat="47.1248" lon="5.4745">
        <ele>335</ele>
        <time>2012-11-29T13:44:52Z</time>
      </trkpt>
      <trkpt lat="47.1248" lon="5.47447">
        <ele>335</ele>
        <time>2012-11-29T13:44:54Z</time>
      </trkpt>
      <trkpt lat="47.12485" lon="5.47429">
        <ele>334</ele>
        <time>2012-11-29T13:45:12Z</time>
      </trkpt>
      <trkpt lat="47.12483" lon="5.47421">
        <ele>334</ele>
        <time>2012-11-29T13:45:29Z</time>
      </trkpt>
      <trkpt lat="47.12486" lon="5.4742">
        <ele>334</ele>
        <time>2012-11-29T13:46:31Z</time>
      </trkpt>
      <trkpt lat="47.12485" lon="5.47419">
        <ele>334</ele>
        <time>2012-11-29T13:47:15Z</time>
      </trkpt>
      <trkpt lat="47.12484" lon="5.47425">
        <ele>334</ele>
        <time>2012-11-29T13:48:36Z</time>
      </trkpt>
      <trkpt lat="47.12483" lon="5.47428">
        <ele>334</ele>
        <time>2012-11-29T13:49:13Z</time>
      </trkpt>
      <trkpt lat="47.12478" lon="5.47442">
        <ele>335</ele>
        <time>2012-11-29T13:50:46Z</time>
      </trkpt>
      <trkpt lat="47.12475" lon="5.47451">
        <ele>335</ele>
        <time>2012-11-29T13:50:56Z</time>
      </trkpt>
      <trkpt lat="47.12473" lon="5.47455">
        <ele>335</ele>
        <time>2012-11-29T13:51:22Z</time>
      </trkpt>
      <trkpt lat="47.1247" lon="5.4746">
        <ele>335</ele>
        <time>2012-11-29T13:52:24Z</time>
      </trkpt>
      <trkpt lat="47.12457" lon="5.47474">
        <ele>335</ele>
        <time>2012-11-29T13:52:42Z</time>
      </trkpt>
      <trkpt lat="47.1244" lon="5.47476">
        <ele>334</ele>
        <time>2012-11-29T13:53:00Z</time>
      </trkpt>
      <trkpt lat="47.12433" lon="5.47479">
        <ele>334</ele>
        <time>2012-11-29T13:53:07Z</time>
      </trkpt>
      <trkpt lat="47.12413" lon="5.47476">
        <ele>334</ele>
        <time>2012-11-29T13:53:24Z</time>
      </trkpt>
      <trkpt lat="47.12388" lon="5.4747">
        <ele>332</ele>
        <time>2012-11-29T13:53:44Z</time>
      </trkpt>
      <trkpt lat="47.12368" lon="5.47467">
        <ele>332</ele>
        <time>2012-11-29T13:54:03Z</time>
      </trkpt>
      <trkpt lat="47.12344" lon="5.47454">
        <ele>331</ele>
        <time>2012-11-29T13:54:22Z</time>
      </trkpt>
      <trkpt lat="47.12326" lon="5.47446">
        <ele>330</ele>
        <time>2012-11-29T13:54:35Z</time>
      </trkpt>
      <trkpt lat="47.1232" lon="5.47446">
        <ele>330</ele>
        <time>2012-11-29T13:54:40Z</time>
      </trkpt>
      <trkpt lat="47.1229" lon="5.47437">
        <ele>328</ele>
        <time>2012-11-29T13:55:02Z</time>
      </trkpt>
      <trkpt lat="47.12263" lon="5.47426">
        <ele>327</ele>
        <time>2012-11-29T13:55:22Z</time>
      </trkpt>
      <trkpt lat="47.12241" lon="5.47418">
        <ele>326</ele>
        <time>2012-11-29T13:55:38Z</time>
      </trkpt>
      <trkpt lat="47.1222" lon="5.47411">
        <ele>325</ele>
        <time>2012-11-29T13:55:56Z</time>
      </trkpt>
      <trkpt lat="47.12207" lon="5.4741">
        <ele>325</ele>
        <time>2012-11-29T13:56:07Z</time>
      </trkpt>
      <trkpt lat="47.12187" lon="5.474">
        <ele>324</ele>
        <time>2012-11-29T13:56:24Z</time>
      </trkpt>
      <trkpt lat="47.12177" lon="5.47398">
        <ele>322</ele>
        <time>2012-11-29T13:56:32Z</time>
      </trkpt>
      <trkpt lat="47.12156" lon="5.47389">
        <ele>321</ele>
        <time>2012-11-29T13:56:49Z</time>
      </trkpt>
      <trkpt lat="47.1214" lon="5.4738">
        <ele>321</ele>
        <time>2012-11-29T13:57:03Z</time>
      </trkpt>
      <trkpt lat="47.12136" lon="5.47379">
        <ele>320</ele>
        <time>2012-11-29T13:57:06Z</time>
      </trkpt>
      <trkpt lat="47.12107" lon="5.47367">
        <ele>318</ele>
        <time>2012-11-29T13:57:31Z</time>
      </trkpt>
      <trkpt lat="47.12089" lon="5.47362">
        <ele>317</ele>
        <time>2012-11-29T13:57:48Z</time>
      </trkpt>
      <trkpt lat="47.12072" lon="5.47356">
        <ele>316</ele>
        <time>2012-11-29T13:58:03Z</time>
      </trkpt>
      <trkpt lat="47.12047" lon="5.47347">
        <ele>315</ele>
        <time>2012-11-29T13:58:23Z</time>
      </trkpt>
      <trkpt lat="47.12028" lon="5.47341">
        <ele>314</ele>
        <time>2012-11-29T13:58:37Z</time>
      </trkpt>
      <trkpt lat="47.11999" lon="5.47337">
        <ele>312</ele>
        <time>2012-11-29T13:58:59Z</time>
      </trkpt>
      <trkpt lat="47.11979" lon="5.47338">
        <ele>311</ele>
        <time>2012-11-29T13:59:16Z</time>
      </trkpt>
      <trkpt lat="47.11953" lon="5.47324">
        <ele>310</ele>
        <time>2012-11-29T13:59:37Z</time>
      </trkpt>
      <trkpt lat="47.11936" lon="5.47317">
        <ele>309</ele>
        <time>2012-11-29T13:59:50Z</time>
      </trkpt>
      <trkpt lat="47.11924" lon="5.47308">
        <ele>309</ele>
        <time>2012-11-29T13:59:58Z</time>
      </trkpt>
      <trkpt lat="47.11905" lon="5.47295">
        <ele>308</ele>
        <time>2012-11-29T14:00:13Z</time>
      </trkpt>
      <trkpt lat="47.11894" lon="5.47298">
        <ele>309</ele>
        <time>2012-11-29T14:00:22Z</time>
      </trkpt>
      <trkpt lat="47.11879" lon="5.47306">
        <ele>308</ele>
        <time>2012-11-29T14:00:34Z</time>
      </trkpt>
      <trkpt lat="47.1186" lon="5.47303">
        <ele>307</ele>
        <time>2012-11-29T14:00:51Z</time>
      </trkpt>
      <trkpt lat="47.11857" lon="5.47302">
        <ele>307</ele>
        <time>2012-11-29T14:00:53Z</time>
      </trkpt>
      <trkpt lat="47.11825" lon="5.47301">
        <ele>306</ele>
        <time>2012-11-29T14:01:14Z</time>
      </trkpt>
      <trkpt lat="47.11815" lon="5.47297">
        <ele>307</ele>
        <time>2012-11-29T14:01:19Z</time>
      </trkpt>
      <trkpt lat="47.11813" lon="5.47296">
        <ele>307</ele>
        <time>2012-11-29T14:01:21Z</time>
      </trkpt>
      <trkpt lat="47.11803" lon="5.47297">
        <ele>307</ele>
        <time>2012-11-29T14:01:30Z</time>
      </trkpt>
      <trkpt lat="47.11792" lon="5.47294">
        <ele>307</ele>
        <time>2012-11-29T14:01:37Z</time>
      </trkpt>
      <trkpt lat="47.11774" lon="5.47297">
        <ele>307</ele>
        <time>2012-11-29T14:01:50Z</time>
      </trkpt>
      <trkpt lat="47.11767" lon="5.47294">
        <ele>307</ele>
        <time>2012-11-29T14:01:54Z</time>
      </trkpt>
      <trkpt lat="47.11762" lon="5.47294">
        <ele>307</ele>
        <time>2012-11-29T14:01:57Z</time>
      </trkpt>
      <trkpt lat="47.1174" lon="5.4729">
        <ele>306</ele>
        <time>2012-11-29T14:02:14Z</time>
      </trkpt>
      <trkpt lat="47.1172" lon="5.47291">
        <ele>306</ele>
        <time>2012-11-29T14:02:31Z</time>
      </trkpt>
      <trkpt lat="47.11712" lon="5.47298">
        <ele>306</ele>
        <time>2012-11-29T14:02:39Z</time>
      </trkpt>
      <trkpt lat="47.11702" lon="5.47297">
        <ele>306</ele>
        <time>2012-11-29T14:02:44Z</time>
      </trkpt>
      <trkpt lat="47.11694" lon="5.47298">
        <ele>305</ele>
        <time>2012-11-29T14:02:49Z</time>
      </trkpt>
      <trkpt lat="47.11677" lon="5.47291">
        <ele>305</ele>
        <time>2012-11-29T14:03:01Z</time>
      </trkpt>
      <trkpt lat="47.11656" lon="5.47294">
        <ele>303</ele>
        <time>2012-11-29T14:03:17Z</time>
      </trkpt>
      <trkpt lat="47.11652" lon="5.47299">
        <ele>303</ele>
        <time>2012-11-29T14:03:21Z</time>
      </trkpt>
      <trkpt lat="47.11636" lon="5.47302">
        <ele>302</ele>
        <time>2012-11-29T14:03:34Z</time>
      </trkpt>
      <trkpt lat="47.11622" lon="5.47302">
        <ele>301</ele>
        <time>2012-11-29T14:03:42Z</time>
      </trkpt>
      <trkpt lat="47.11616" lon="5.473">
        <ele>301</ele>
        <time>2012-11-29T14:03:45Z</time>
      </trkpt>
      <trkpt lat="47.11603" lon="5.47296">
        <ele>300</ele>
        <time>2012-11-29T14:03:54Z</time>
      </trkpt>
      <trkpt lat="47.11598" lon="5.47294">
        <ele>300</ele>
        <time>2012-11-29T14:03:58Z</time>
      </trkpt>
      <trkpt lat="47.11588" lon="5.47296">
        <ele>300</ele>
        <time>2012-11-29T14:04:06Z</time>
      </trkpt>
      <trkpt lat="47.11575" lon="5.47296">
        <ele>299</ele>
        <time>2012-11-29T14:04:17Z</time>
      </trkpt>
      <trkpt lat="47.11541" lon="5.47301">
        <ele>297</ele>
        <time>2012-11-29T14:04:40Z</time>
      </trkpt>
      <trkpt lat="47.11526" lon="5.473">
        <ele>295</ele>
        <time>2012-11-29T14:04:52Z</time>
      </trkpt>
      <trkpt lat="47.11517" lon="5.47297">
        <ele>295</ele>
        <time>2012-11-29T14:04:58Z</time>
      </trkpt>
      <trkpt lat="47.11498" lon="5.47302">
        <ele>293</ele>
        <time>2012-11-29T14:05:13Z</time>
      </trkpt>
      <trkpt lat="47.11489" lon="5.47305">
        <ele>292</ele>
        <time>2012-11-29T14:05:20Z</time>
      </trkpt>
      <trkpt lat="47.11482" lon="5.47306">
        <ele>291</ele>
        <time>2012-11-29T14:05:25Z</time>
      </trkpt>
      <trkpt lat="47.11458" lon="5.47316">
        <ele>289</ele>
        <time>2012-11-29T14:05:43Z</time>
      </trkpt>
      <trkpt lat="47.1145" lon="5.47315">
        <ele>289</ele>
        <time>2012-11-29T14:05:48Z</time>
      </trkpt>
      <trkpt lat="47.11427" lon="5.47318">
        <ele>287</ele>
        <time>2012-11-29T14:06:05Z</time>
      </trkpt>
      <trkpt lat="47.11423" lon="5.47319">
        <ele>287</ele>
        <time>2012-11-29T14:06:08Z</time>
      </trkpt>
      <trkpt lat="47.1142" lon="5.47319">
        <ele>286</ele>
        <time>2012-11-29T14:06:11Z</time>
      </trkpt>
      <trkpt lat="47.11409" lon="5.47315">
        <ele>285</ele>
        <time>2012-11-29T14:06:19Z</time>
      </trkpt>
      <trkpt lat="47.114" lon="5.47313">
        <ele>285</ele>
        <time>2012-11-29T14:06:26Z</time>
      </trkpt>
      <trkpt lat="47.11383" lon="5.47312">
        <ele>283</ele>
        <time>2012-11-29T14:06:39Z</time>
      </trkpt>
      <trkpt lat="47.11377" lon="5.47312">
        <ele>283</ele>
        <time>2012-11-29T14:06:43Z</time>
      </trkpt>
      <trkpt lat="47.11372" lon="5.47309">
        <ele>283</ele>
        <time>2012-11-29T14:06:46Z</time>
      </trkpt>
      <trkpt lat="47.11358" lon="5.47305">
        <ele>282</ele>
        <time>2012-11-29T14:06:56Z</time>
      </trkpt>
      <trkpt lat="47.11351" lon="5.47304">
        <ele>282</ele>
        <time>2012-11-29T14:07:01Z</time>
      </trkpt>
      <trkpt lat="47.11346" lon="5.47303">
        <ele>282</ele>
        <time>2012-11-29T14:07:05Z</time>
      </trkpt>
      <trkpt lat="47.11341" lon="5.47302">
        <ele>281</ele>
        <time>2012-11-29T14:07:09Z</time>
      </trkpt>
      <trkpt lat="47.11331" lon="5.47299">
        <ele>281</ele>
        <time>2012-11-29T14:07:16Z</time>
      </trkpt>
      <trkpt lat="47.11315" lon="5.47278">
        <ele>281</ele>
        <time>2012-11-29T14:07:31Z</time>
      </trkpt>
      <trkpt lat="47.11304" lon="5.47255">
        <ele>283</ele>
        <time>2012-11-29T14:07:47Z</time>
      </trkpt>
      <trkpt lat="47.11295" lon="5.47235">
        <ele>284</ele>
        <time>2012-11-29T14:08:00Z</time>
      </trkpt>
      <trkpt lat="47.11284" lon="5.47207">
        <ele>284</ele>
        <time>2012-11-29T14:08:16Z</time>
      </trkpt>
      <trkpt lat="47.11282" lon="5.47202">
        <ele>285</ele>
        <time>2012-11-29T14:08:19Z</time>
      </trkpt>
      <trkpt lat="47.11268" lon="5.47169">
        <ele>286</ele>
        <time>2012-11-29T14:08:38Z</time>
      </trkpt>
      <trkpt lat="47.11266" lon="5.47166">
        <ele>286</ele>
        <time>2012-11-29T14:08:40Z</time>
      </trkpt>
      <trkpt lat="47.1125" lon="5.47139">
        <ele>288</ele>
        <time>2012-11-29T14:08:59Z</time>
      </trkpt>
      <trkpt lat="47.11241" lon="5.4712">
        <ele>288</ele>
        <time>2012-11-29T14:09:12Z</time>
      </trkpt>
      <trkpt lat="47.11236" lon="5.471">
        <ele>289</ele>
        <time>2012-11-29T14:09:25Z</time>
      </trkpt>
      <trkpt lat="47.11229" lon="5.47074">
        <ele>291</ele>
        <time>2012-11-29T14:09:42Z</time>
      </trkpt>
      <trkpt lat="47.11228" lon="5.47072">
        <ele>291</ele>
        <time>2012-11-29T14:09:43Z</time>
      </trkpt>
      <trkpt lat="47.11219" lon="5.47051">
        <ele>292</ele>
        <time>2012-11-29T14:10:00Z</time>
      </trkpt>
      <trkpt lat="47.11216" lon="5.47047">
        <ele>292</ele>
        <time>2012-11-29T14:10:04Z</time>
      </trkpt>
      <trkpt lat="47.11209" lon="5.47037">
        <ele>293</ele>
        <time>2012-11-29T14:10:12Z</time>
      </trkpt>
      <trkpt lat="47.11204" lon="5.47022">
        <ele>293</ele>
        <time>2012-11-29T14:10:23Z</time>
      </trkpt>
      <trkpt lat="47.11194" lon="5.47001">
        <ele>294</ele>
        <time>2012-11-29T14:10:37Z</time>
      </trkpt>
      <trkpt lat="47.11187" lon="5.46973">
        <ele>295</ele>
        <time>2012-11-29T14:10:56Z</time>
      </trkpt>
      <trkpt lat="47.11181" lon="5.4695">
        <ele>296</ele>
        <time>2012-11-29T14:11:14Z</time>
      </trkpt>
      <trkpt lat="47.11179" lon="5.46944">
        <ele>296</ele>
        <time>2012-11-29T14:11:46Z</time>
      </trkpt>
      <trkpt lat="47.11179" lon="5.46938">
        <ele>296</ele>
        <time>2012-11-29T14:14:25Z</time>
      </trkpt>
      <trkpt lat="47.11197" lon="5.46931">
        <ele>297</ele>
        <time>2012-11-29T14:14:42Z</time>
      </trkpt>
      <trkpt lat="47.11221" lon="5.46942">
        <ele>299</ele>
        <time>2012-11-29T14:14:59Z</time>
      </trkpt>
      <trkpt lat="47.11223" lon="5.46943">
        <ele>298</ele>
        <time>2012-11-29T14:15:01Z</time>
      </trkpt>
      <trkpt lat="47.11227" lon="5.46949">
        <ele>299</ele>
        <time>2012-11-29T14:15:06Z</time>
      </trkpt>
      <trkpt lat="47.11237" lon="5.46961">
        <ele>299</ele>
        <time>2012-11-29T14:15:16Z</time>
      </trkpt>
      <trkpt lat="47.11245" lon="5.46965">
        <ele>299</ele>
        <time>2012-11-29T14:15:23Z</time>
      </trkpt>
      <trkpt lat="47.11247" lon="5.46967">
        <ele>300</ele>
        <time>2012-11-29T14:15:25Z</time>
      </trkpt>
      <trkpt lat="47.1127" lon="5.46977">
        <ele>300</ele>
        <time>2012-11-29T14:15:42Z</time>
      </trkpt>
      <trkpt lat="47.11283" lon="5.46984">
        <ele>301</ele>
        <time>2012-11-29T14:15:52Z</time>
      </trkpt>
      <trkpt lat="47.11286" lon="5.46987">
        <ele>301</ele>
        <time>2012-11-29T14:15:55Z</time>
      </trkpt>
      <trkpt lat="47.1129" lon="5.46991">
        <ele>301</ele>
        <time>2012-11-29T14:15:59Z</time>
      </trkpt>
      <trkpt lat="47.11305" lon="5.47007">
        <ele>302</ele>
        <time>2012-11-29T14:16:17Z</time>
      </trkpt>
      <trkpt lat="47.11332" lon="5.47021">
        <ele>302</ele>
        <time>2012-11-29T14:16:36Z</time>
      </trkpt>
      <trkpt lat="47.11344" lon="5.47037">
        <ele>303</ele>
        <time>2012-11-29T14:16:49Z</time>
      </trkpt>
      <trkpt lat="47.11345" lon="5.47038">
        <ele>303</ele>
        <time>2012-11-29T14:16:50Z</time>
      </trkpt>
      <trkpt lat="47.11369" lon="5.47031">
        <ele>305</ele>
        <time>2012-11-29T14:17:07Z</time>
      </trkpt>
      <trkpt lat="47.11384" lon="5.47032">
        <ele>307</ele>
        <time>2012-11-29T14:17:20Z</time>
      </trkpt>
      <trkpt lat="47.11399" lon="5.4704">
        <ele>309</ele>
        <time>2012-11-29T14:17:31Z</time>
      </trkpt>
      <trkpt lat="47.11418" lon="5.47041">
        <ele>310</ele>
        <time>2012-11-29T14:17:46Z</time>
      </trkpt>
      <trkpt lat="47.11431" lon="5.47042">
        <ele>312</ele>
        <time>2012-11-29T14:17:59Z</time>
      </trkpt>
      <trkpt lat="47.11456" lon="5.47042">
        <ele>314</ele>
        <time>2012-11-29T14:18:19Z</time>
      </trkpt>
      <trkpt lat="47.11476" lon="5.47036">
        <ele>316</ele>
        <time>2012-11-29T14:18:34Z</time>
      </trkpt>
      <trkpt lat="47.11498" lon="5.47031">
        <ele>318</ele>
        <time>2012-11-29T14:18:52Z</time>
      </trkpt>
      <trkpt lat="47.11519" lon="5.47023">
        <ele>321</ele>
        <time>2012-11-29T14:19:11Z</time>
      </trkpt>
      <trkpt lat="47.1154" lon="5.47017">
        <ele>324</ele>
        <time>2012-11-29T14:19:30Z</time>
      </trkpt>
      <trkpt lat="47.11559" lon="5.47012">
        <ele>326</ele>
        <time>2012-11-29T14:19:47Z</time>
      </trkpt>
      <trkpt lat="47.11565" lon="5.47007">
        <ele>326</ele>
        <time>2012-11-29T14:19:53Z</time>
      </trkpt>
      <trkpt lat="47.11577" lon="5.46986">
        <ele>328</ele>
        <time>2012-11-29T14:20:09Z</time>
      </trkpt>
      <trkpt lat="47.11587" lon="5.46958">
        <ele>330</ele>
        <time>2012-11-29T14:20:26Z</time>
      </trkpt>
      <trkpt lat="47.11598" lon="5.46923">
        <ele>331</ele>
        <time>2012-11-29T14:20:45Z</time>
      </trkpt>
      <trkpt lat="47.11614" lon="5.4688">
        <ele>330</ele>
        <time>2012-11-29T14:21:12Z</time>
      </trkpt>
      <trkpt lat="47.11625" lon="5.46857">
        <ele>329</ele>
        <time>2012-11-29T14:21:30Z</time>
      </trkpt>
      <trkpt lat="47.11648" lon="5.46874">
        <ele>329</ele>
        <time>2012-11-29T14:21:49Z</time>
      </trkpt>
      <trkpt lat="47.11675" lon="5.46895">
        <ele>330</ele>
        <time>2012-11-29T14:22:10Z</time>
      </trkpt>
      <trkpt lat="47.11696" lon="5.46912">
        <ele>331</ele>
        <time>2012-11-29T14:22:29Z</time>
      </trkpt>
      <trkpt lat="47.11699" lon="5.46916">
        <ele>331</ele>
        <time>2012-11-29T14:22:32Z</time>
      </trkpt>
      <trkpt lat="47.11701" lon="5.46916">
        <ele>331</ele>
        <time>2012-11-29T14:22:34Z</time>
      </trkpt>
      <trkpt lat="47.11704" lon="5.46918">
        <ele>331</ele>
        <time>2012-11-29T14:22:37Z</time>
      </trkpt>
      <trkpt lat="47.11709" lon="5.46928">
        <ele>333</ele>
        <time>2012-11-29T14:22:46Z</time>
      </trkpt>
      <trkpt lat="47.11706" lon="5.46943">
        <ele>333</ele>
        <time>2012-11-29T14:22:54Z</time>
      </trkpt>
      <trkpt lat="47.11705" lon="5.46957">
        <ele>333</ele>
        <time>2012-11-29T14:23:02Z</time>
      </trkpt>
      <trkpt lat="47.11707" lon="5.46965">
        <ele>333</ele>
        <time>2012-11-29T14:23:06Z</time>
      </trkpt>
      <trkpt lat="47.11721" lon="5.46983">
        <ele>333</ele>
        <time>2012-11-29T14:23:20Z</time>
      </trkpt>
      <trkpt lat="47.11728" lon="5.46991">
        <ele>333</ele>
        <time>2012-11-29T14:23:28Z</time>
      </trkpt>
      <trkpt lat="47.11737" lon="5.46996">
        <ele>334</ele>
        <time>2012-11-29T14:23:35Z</time>
      </trkpt>
      <trkpt lat="47.1176" lon="5.47011">
        <ele>334</ele>
        <time>2012-11-29T14:23:56Z</time>
      </trkpt>
      <trkpt lat="47.11774" lon="5.47017">
        <ele>334</ele>
        <time>2012-11-29T14:24:07Z</time>
      </trkpt>
      <trkpt lat="47.11795" lon="5.47028">
        <ele>335</ele>
        <time>2012-11-29T14:24:24Z</time>
      </trkpt>
      <trkpt lat="47.11813" lon="5.47038">
        <ele>334</ele>
        <time>2012-11-29T14:24:38Z</time>
      </trkpt>
      <trkpt lat="47.11836" lon="5.4705">
        <ele>334</ele>
        <time>2012-11-29T14:24:55Z</time>
      </trkpt>
      <trkpt lat="47.11857" lon="5.47058">
        <ele>335</ele>
        <time>2012-11-29T14:25:12Z</time>
      </trkpt>
      <trkpt lat="47.11874" lon="5.47067">
        <ele>334</ele>
        <time>2012-11-29T14:25:27Z</time>
      </trkpt>
      <trkpt lat="47.11891" lon="5.47072">
        <ele>334</ele>
        <time>2012-11-29T14:25:41Z</time>
      </trkpt>
      <trkpt lat="47.119" lon="5.47075">
        <ele>334</ele>
        <time>2012-11-29T14:25:49Z</time>
      </trkpt>
      <trkpt lat="47.11911" lon="5.47075">
        <ele>333</ele>
        <time>2012-11-29T14:26:05Z</time>
      </trkpt>
      <trkpt lat="47.11918" lon="5.47071">
        <ele>333</ele>
        <time>2012-11-29T14:26:26Z</time>
      </trkpt>
      <trkpt lat="47.11921" lon="5.47063">
        <ele>333</ele>
        <time>2012-11-29T14:26:34Z</time>
      </trkpt>
      <trkpt lat="47.11924" lon="5.47061">
        <ele>333</ele>
        <time>2012-11-29T14:26:37Z</time>
      </trkpt>
      <trkpt lat="47.11933" lon="5.4705">
        <ele>333</ele>
        <time>2012-11-29T14:26:50Z</time>
      </trkpt>
      <trkpt lat="47.11945" lon="5.47049">
        <ele>333</ele>
        <time>2012-11-29T14:27:00Z</time>
      </trkpt>
      <trkpt lat="47.11951" lon="5.47052">
        <ele>332</ele>
        <time>2012-11-29T14:27:05Z</time>
      </trkpt>
      <trkpt lat="47.11959" lon="5.47048">
        <ele>332</ele>
        <time>2012-11-29T14:27:13Z</time>
      </trkpt>
      <trkpt lat="47.11966" lon="5.47047">
        <ele>332</ele>
        <time>2012-11-29T14:27:19Z</time>
      </trkpt>
      <trkpt lat="47.1197" lon="5.47045">
        <ele>332</ele>
        <time>2012-11-29T14:27:24Z</time>
      </trkpt>
      <trkpt lat="47.11981" lon="5.47053">
        <ele>331</ele>
        <time>2012-11-29T14:27:36Z</time>
      </trkpt>
      <trkpt lat="47.11985" lon="5.47053">
        <ele>330</ele>
        <time>2012-11-29T14:27:39Z</time>
      </trkpt>
      <trkpt lat="47.11988" lon="5.47054">
        <ele>330</ele>
        <time>2012-11-29T14:27:42Z</time>
      </trkpt>
      <trkpt lat="47.11996" lon="5.47053">
        <ele>330</ele>
        <time>2012-11-29T14:27:50Z</time>
      </trkpt>
      <trkpt lat="47.12001" lon="5.47055">
        <ele>329</ele>
        <time>2012-11-29T14:27:54Z</time>
      </trkpt>
      <trkpt lat="47.12022" lon="5.47053">
        <ele>329</ele>
        <time>2012-11-29T14:28:13Z</time>
      </trkpt>
      <trkpt lat="47.12039" lon="5.47051">
        <ele>329</ele>
        <time>2012-11-29T14:28:32Z</time>
      </trkpt>
      <trkpt lat="47.12041" lon="5.47048">
        <ele>329</ele>
        <time>2012-11-29T14:28:39Z</time>
      </trkpt>
      <trkpt lat="47.12049" lon="5.47029">
        <ele>328</ele>
        <time>2012-11-29T14:28:52Z</time>
      </trkpt>
      <trkpt lat="47.12054" lon="5.47009">
        <ele>326</ele>
        <time>2012-11-29T14:29:09Z</time>
      </trkpt>
      <trkpt lat="47.12059" lon="5.46985">
        <ele>326</ele>
        <time>2012-11-29T14:29:27Z</time>
      </trkpt>
      <trkpt lat="47.12066" lon="5.4697">
        <ele>326</ele>
        <time>2012-11-29T14:29:38Z</time>
      </trkpt>
      <trkpt lat="47.12082" lon="5.46978">
        <ele>325</ele>
        <time>2012-11-29T14:29:52Z</time>
      </trkpt>
      <trkpt lat="47.1209" lon="5.46985">
        <ele>325</ele>
        <time>2012-11-29T14:29:58Z</time>
      </trkpt>
      <trkpt lat="47.12103" lon="5.47009">
        <ele>325</ele>
        <time>2012-11-29T14:30:16Z</time>
      </trkpt>
      <trkpt lat="47.12116" lon="5.47026">
        <ele>326</ele>
        <time>2012-11-29T14:30:33Z</time>
      </trkpt>
      <trkpt lat="47.1213" lon="5.47056">
        <ele>327</ele>
        <time>2012-11-29T14:30:52Z</time>
      </trkpt>
      <trkpt lat="47.1214" lon="5.47071">
        <ele>327</ele>
        <time>2012-11-29T14:31:05Z</time>
      </trkpt>
      <trkpt lat="47.1215" lon="5.47091">
        <ele>328</ele>
        <time>2012-11-29T14:31:19Z</time>
      </trkpt>
      <trkpt lat="47.12171" lon="5.47125">
        <ele>329</ele>
        <time>2012-11-29T14:31:41Z</time>
      </trkpt>
      <trkpt lat="47.1219" lon="5.47161">
        <ele>330</ele>
        <time>2012-11-29T14:32:08Z</time>
      </trkpt>
      <trkpt lat="47.12205" lon="5.47158">
        <ele>330</ele>
        <time>2012-11-29T14:32:25Z</time>
      </trkpt>
      <trkpt lat="47.12232" lon="5.47123">
        <ele>327</ele>
        <time>2012-11-29T14:32:56Z</time>
      </trkpt>
      <trkpt lat="47.12255" lon="5.47093">
        <ele>324</ele>
        <time>2012-11-29T14:33:21Z</time>
      </trkpt>
      <trkpt lat="47.12276" lon="5.47066">
        <ele>321</ele>
        <time>2012-11-29T14:33:45Z</time>
      </trkpt>
      <trkpt lat="47.12289" lon="5.47029">
        <ele>317</ele>
        <time>2012-11-29T14:34:10Z</time>
      </trkpt>
      <trkpt lat="47.12299" lon="5.47002">
        <ele>314</ele>
        <time>2012-11-29T14:34:28Z</time>
      </trkpt>
      <trkpt lat="47.12325" lon="5.46977">
        <ele>311</ele>
        <time>2012-11-29T14:34:52Z</time>
      </trkpt>
      <trkpt lat="47.12345" lon="5.46961">
        <ele>308</ele>
        <time>2012-11-29T14:35:10Z</time>
      </trkpt>
      <trkpt lat="47.12348" lon="5.46958">
        <ele>308</ele>
        <time>2012-11-29T14:35:13Z</time>
      </trkpt>
      <trkpt lat="47.1235" lon="5.46957">
        <ele>308</ele>
        <time>2012-11-29T14:35:16Z</time>
      </trkpt>
      <trkpt lat="47.1237" lon="5.46959">
        <ele>307</ele>
        <time>2012-11-29T14:35:32Z</time>
      </trkpt>
      <trkpt lat="47.12369" lon="5.46956">
        <ele>306</ele>
        <time>2012-11-29T14:35:33Z</time>
      </trkpt>
      <trkpt lat="47.12372" lon="5.46956">
        <ele>306</ele>
        <time>2012-11-29T14:35:35Z</time>
      </trkpt>
      <trkpt lat="47.12404" lon="5.46945">
        <ele>303</ele>
        <time>2012-11-29T14:36:00Z</time>
      </trkpt>
      <trkpt lat="47.12435" lon="5.46931">
        <ele>300</ele>
        <time>2012-11-29T14:36:25Z</time>
      </trkpt>
      <trkpt lat="47.12455" lon="5.46904">
        <ele>297</ele>
        <time>2012-11-29T14:36:46Z</time>
      </trkpt>
      <trkpt lat="47.1247" lon="5.46876">
        <ele>294</ele>
        <time>2012-11-29T14:37:06Z</time>
      </trkpt>
      <trkpt lat="47.12483" lon="5.46849">
        <ele>291</ele>
        <time>2012-11-29T14:37:25Z</time>
      </trkpt>
      <trkpt lat="47.12489" lon="5.46815">
        <ele>288</ele>
        <time>2012-11-29T14:37:45Z</time>
      </trkpt>
      <trkpt lat="47.12488" lon="5.46784">
        <ele>285</ele>
        <time>2012-11-29T14:38:06Z</time>
      </trkpt>
      <trkpt lat="47.12489" lon="5.46771">
        <ele>283</ele>
        <time>2012-11-29T14:38:20Z</time>
      </trkpt>
      <trkpt lat="47.12489" lon="5.46768">
        <ele>283</ele>
        <time>2012-11-29T14:38:47Z</time>
      </trkpt>
      <trkpt lat="47.12489" lon="5.46756">
        <ele>281</ele>
        <time>2012-11-29T14:43:48Z</time>
      </trkpt>
      <trkpt lat="47.12489" lon="5.46723">
        <ele>278</ele>
        <time>2012-11-29T14:44:09Z</time>
      </trkpt>
      <trkpt lat="47.12492" lon="5.46701">
        <ele>277</ele>
        <time>2012-11-29T14:44:22Z</time>
      </trkpt>
      <trkpt lat="47.12492" lon="5.46699">
        <ele>277</ele>
        <time>2012-11-29T14:44:24Z</time>
      </trkpt>
      <trkpt lat="47.12492" lon="5.46658">
        <ele>275</ele>
        <time>2012-11-29T14:44:45Z</time>
      </trkpt>
      <trkpt lat="47.12489" lon="5.46635">
        <ele>273</ele>
        <time>2012-11-29T14:44:58Z</time>
      </trkpt>
      <trkpt lat="47.12483" lon="5.46601">
        <ele>271</ele>
        <time>2012-11-29T14:45:16Z</time>
      </trkpt>
      <trkpt lat="47.12477" lon="5.46577">
        <ele>269</ele>
        <time>2012-11-29T14:45:31Z</time>
      </trkpt>
      <trkpt lat="47.12469" lon="5.46548">
        <ele>268</ele>
        <time>2012-11-29T14:45:48Z</time>
      </trkpt>
      <trkpt lat="47.12466" lon="5.4654">
        <ele>268</ele>
        <time>2012-11-29T14:45:53Z</time>
      </trkpt>
      <trkpt lat="47.12465" lon="5.46534">
        <ele>267</ele>
        <time>2012-11-29T14:45:57Z</time>
      </trkpt>
      <trkpt lat="47.12463" lon="5.46489">
        <ele>265</ele>
        <time>2012-11-29T14:46:21Z</time>
      </trkpt>
      <trkpt lat="47.12474" lon="5.46482">
        <ele>265</ele>
        <time>2012-11-29T14:46:31Z</time>
      </trkpt>
      <trkpt lat="47.12495" lon="5.465">
        <ele>266</ele>
        <time>2012-11-29T14:46:51Z</time>
      </trkpt>
      <trkpt lat="47.12508" lon="5.46511">
        <ele>267</ele>
        <time>2012-11-29T14:47:03Z</time>
      </trkpt>
      <trkpt lat="47.12512" lon="5.46511">
        <ele>267</ele>
        <time>2012-11-29T14:47:06Z</time>
      </trkpt>
      <trkpt lat="47.1252" lon="5.46512">
        <ele>268</ele>
        <time>2012-11-29T14:47:10Z</time>
      </trkpt>
      <trkpt lat="47.12539" lon="5.46516">
        <ele>268</ele>
        <time>2012-11-29T14:47:23Z</time>
      </trkpt>
      <trkpt lat="47.12555" lon="5.46516">
        <ele>266</ele>
        <time>2012-11-29T14:47:37Z</time>
      </trkpt>
      <trkpt lat="47.1257" lon="5.46512">
        <ele>265</ele>
        <time>2012-11-29T14:47:49Z</time>
      </trkpt>
      <trkpt lat="47.12581" lon="5.46502">
        <ele>264</ele>
        <time>2012-11-29T14:47:59Z</time>
      </trkpt>
      <trkpt lat="47.12582" lon="5.46494">
        <ele>263</ele>
        <time>2012-11-29T14:48:04Z</time>
      </trkpt>
      <trkpt lat="47.12582" lon="5.46465">
        <ele>260</ele>
        <time>2012-11-29T14:48:22Z</time>
      </trkpt>
      <trkpt lat="47.12587" lon="5.4643">
        <ele>257</ele>
        <time>2012-11-29T14:48:40Z</time>
      </trkpt>
      <trkpt lat="47.12585" lon="5.464">
        <ele>253</ele>
        <time>2012-11-29T14:48:56Z</time>
      </trkpt>
      <trkpt lat="47.12584" lon="5.46375">
        <ele>252</ele>
        <time>2012-11-29T14:49:11Z</time>
      </trkpt>
      <trkpt lat="47.12586" lon="5.46355">
        <ele>249</ele>
        <time>2012-11-29T14:49:24Z</time>
      </trkpt>
      <trkpt lat="47.12574" lon="5.46317">
        <ele>247</ele>
        <time>2012-11-29T14:49:42Z</time>
      </trkpt>
      <trkpt lat="47.12569" lon="5.46298">
        <ele>245</ele>
        <time>2012-11-29T14:49:56Z</time>
      </trkpt>
      <trkpt lat="47.12565" lon="5.46256">
        <ele>242</ele>
        <time>2012-11-29T14:50:17Z</time>
      </trkpt>
      <trkpt lat="47.12566" lon="5.46212">
        <ele>239</ele>
        <time>2012-11-29T14:50:41Z</time>
      </trkpt>
      <trkpt lat="47.12574" lon="5.46168">
        <ele>237</ele>
        <time>2012-11-29T14:51:06Z</time>
      </trkpt>
      <trkpt lat="47.12578" lon="5.46128">
        <ele>235</ele>
        <time>2012-11-29T14:51:28Z</time>
      </trkpt>
      <trkpt lat="47.12583" lon="5.46112">
        <ele>234</ele>
        <time>2012-11-29T14:51:39Z</time>
      </trkpt>
      <trkpt lat="47.12587" lon="5.46111">
        <ele>234</ele>
        <time>2012-11-29T14:51:42Z</time>
      </trkpt>
      <trkpt lat="47.1261" lon="5.46123">
        <ele>233</ele>
        <time>2012-11-29T14:52:00Z</time>
      </trkpt>
      <trkpt lat="47.12621" lon="5.46127">
        <ele>233</ele>
        <time>2012-11-29T14:52:08Z</time>
      </trkpt>
      <trkpt lat="47.12643" lon="5.46136">
        <ele>232</ele>
        <time>2012-11-29T14:52:26Z</time>
      </trkpt>
      <trkpt lat="47.12659" lon="5.46143">
        <ele>232</ele>
        <time>2012-11-29T14:52:41Z</time>
      </trkpt>
      <trkpt lat="47.12685" lon="5.46155">
        <ele>231</ele>
        <time>2012-11-29T14:53:01Z</time>
      </trkpt>
      <trkpt lat="47.12704" lon="5.46163">
        <ele>230</ele>
        <time>2012-11-29T14:53:16Z</time>
      </trkpt>
      <trkpt lat="47.12715" lon="5.4617">
        <ele>230</ele>
        <time>2012-11-29T14:53:25Z</time>
      </trkpt>
      <trkpt lat="47.1273" lon="5.46184">
        <ele>229</ele>
        <time>2012-11-29T14:53:40Z</time>
      </trkpt>
      <trkpt lat="47.12735" lon="5.4622">
        <ele>230</ele>
        <time>2012-11-29T14:54:00Z</time>
      </trkpt>
      <trkpt lat="47.12736" lon="5.4622">
        <ele>230</ele>
        <time>2012-11-29T14:54:01Z</time>
      </trkpt>
      <trkpt lat="47.12738" lon="5.46265">
        <ele>232</ele>
        <time>2012-11-29T14:54:22Z</time>
      </trkpt>
      <trkpt lat="47.12739" lon="5.46294">
        <ele>234</ele>
        <time>2012-11-29T14:54:39Z</time>
      </trkpt>
      <trkpt lat="47.12743" lon="5.46312">
        <ele>236</ele>
        <time>2012-11-29T14:54:53Z</time>
      </trkpt>
      <trkpt lat="47.12745" lon="5.46336">
        <ele>237</ele>
        <time>2012-11-29T14:55:05Z</time>
      </trkpt>
      <trkpt lat="47.12745" lon="5.46362">
        <ele>239</ele>
        <time>2012-11-29T14:55:19Z</time>
      </trkpt>
      <trkpt lat="47.12745" lon="5.4639">
        <ele>240</ele>
        <time>2012-11-29T14:55:36Z</time>
      </trkpt>
      <trkpt lat="47.12747" lon="5.46397">
        <ele>241</ele>
        <time>2012-11-29T14:55:41Z</time>
      </trkpt>
      <trkpt lat="47.12749" lon="5.46414">
        <ele>243</ele>
        <time>2012-11-29T14:55:54Z</time>
      </trkpt>
      <trkpt lat="47.12752" lon="5.46427">
        <ele>245</ele>
        <time>2012-11-29T14:56:01Z</time>
      </trkpt>
      <trkpt lat="47.12758" lon="5.4645">
        <ele>246</ele>
        <time>2012-11-29T14:56:15Z</time>
      </trkpt>
      <trkpt lat="47.12771" lon="5.46472">
        <ele>248</ele>
        <time>2012-11-29T14:56:31Z</time>
      </trkpt>
      <trkpt lat="47.12779" lon="5.46504">
        <ele>250</ele>
        <time>2012-11-29T14:56:52Z</time>
      </trkpt>
      <trkpt lat="47.12783" lon="5.46513">
        <ele>251</ele>
        <time>2012-11-29T14:56:59Z</time>
      </trkpt>
      <trkpt lat="47.12786" lon="5.46535">
        <ele>253</ele>
        <time>2012-11-29T14:57:14Z</time>
      </trkpt>
      <trkpt lat="47.12786" lon="5.46538">
        <ele>254</ele>
        <time>2012-11-29T14:57:17Z</time>
      </trkpt>
      <trkpt lat="47.12785" lon="5.46559">
        <ele>256</ele>
        <time>2012-11-29T14:57:32Z</time>
      </trkpt>
      <trkpt lat="47.12781" lon="5.46583">
        <ele>259</ele>
        <time>2012-11-29T14:57:50Z</time>
      </trkpt>
      <trkpt lat="47.12777" lon="5.46618">
        <ele>262</ele>
        <time>2012-11-29T14:58:11Z</time>
      </trkpt>
      <trkpt lat="47.12776" lon="5.46632">
        <ele>263</ele>
        <time>2012-11-29T14:58:25Z</time>
      </trkpt>
      <trkpt lat="47.12781" lon="5.46658">
        <ele>265</ele>
        <time>2012-11-29T14:58:46Z</time>
      </trkpt>
      <trkpt lat="47.1278" lon="5.4668">
        <ele>268</ele>
        <time>2012-11-29T14:59:05Z</time>
      </trkpt>
      <trkpt lat="47.12775" lon="5.46704">
        <ele>270</ele>
        <time>2012-11-29T14:59:22Z</time>
      </trkpt>
      <trkpt lat="47.12768" lon="5.4673">
        <ele>273</ele>
        <time>2012-11-29T14:59:42Z</time>
      </trkpt>
      <trkpt lat="47.12767" lon="5.46762">
        <ele>276</ele>
        <time>2012-11-29T15:00:04Z</time>
      </trkpt>
      <trkpt lat="47.12772" lon="5.46788">
        <ele>278</ele>
        <time>2012-11-29T15:00:27Z</time>
      </trkpt>
      <trkpt lat="47.12779" lon="5.46816">
        <ele>281</ele>
        <time>2012-11-29T15:00:48Z</time>
      </trkpt>
      <trkpt lat="47.12793" lon="5.46841">
        <ele>282</ele>
        <time>2012-11-29T15:01:08Z</time>
      </trkpt>
      <trkpt lat="47.12804" lon="5.46856">
        <ele>283</ele>
        <time>2012-11-29T15:01:22Z</time>
      </trkpt>
      <trkpt lat="47.12809" lon="5.46861">
        <ele>283</ele>
        <time>2012-11-29T15:01:28Z</time>
      </trkpt>
      <trkpt lat="47.1281" lon="5.46863">
        <ele>283</ele>
        <time>2012-11-29T15:01:31Z</time>
      </trkpt>
      <trkpt lat="47.12812" lon="5.46871">
        <ele>283</ele>
        <time>2012-11-29T15:01:36Z</time>
      </trkpt>
      <trkpt lat="47.12815" lon="5.46878">
        <ele>284</ele>
        <time>2012-11-29T15:01:40Z</time>
      </trkpt>
      <trkpt lat="47.12821" lon="5.46897">
        <ele>285</ele>
        <time>2012-11-29T15:01:54Z</time>
      </trkpt>
      <trkpt lat="47.12828" lon="5.4691">
        <ele>286</ele>
        <time>2012-11-29T15:02:04Z</time>
      </trkpt>
      <trkpt lat="47.12828" lon="5.46914">
        <ele>286</ele>
        <time>2012-11-29T15:02:06Z</time>
      </trkpt>
      <trkpt lat="47.12837" lon="5.4693">
        <ele>287</ele>
        <time>2012-11-29T15:02:19Z</time>
      </trkpt>
      <trkpt lat="47.12838" lon="5.46937">
        <ele>287</ele>
        <time>2012-11-29T15:02:24Z</time>
      </trkpt>
      <trkpt lat="47.12855" lon="5.46941">
        <ele>285</ele>
        <time>2012-11-29T15:02:41Z</time>
      </trkpt>
      <trkpt lat="47.12866" lon="5.46953">
        <ele>284</ele>
        <time>2012-11-29T15:02:55Z</time>
      </trkpt>
      <trkpt lat="47.12886" lon="5.46963">
        <ele>282</ele>
        <time>2012-11-29T15:03:13Z</time>
      </trkpt>
      <trkpt lat="47.1291" lon="5.4698">
        <ele>280</ele>
        <time>2012-11-29T15:03:32Z</time>
      </trkpt>
      <trkpt lat="47.12922" lon="5.46997">
        <ele>279</ele>
        <time>2012-11-29T15:03:46Z</time>
      </trkpt>
      <trkpt lat="47.12942" lon="5.47029">
        <ele>279</ele>
        <time>2012-11-29T15:04:09Z</time>
      </trkpt>
      <trkpt lat="47.1295" lon="5.47063">
        <ele>278</ele>
        <time>2012-11-29T15:04:27Z</time>
      </trkpt>
      <trkpt lat="47.12959" lon="5.47087">
        <ele>279</ele>
        <time>2012-11-29T15:04:42Z</time>
      </trkpt>
      <trkpt lat="47.12969" lon="5.4712">
        <ele>279</ele>
        <time>2012-11-29T15:05:02Z</time>
      </trkpt>
      <trkpt lat="47.12979" lon="5.47151">
        <ele>280</ele>
        <time>2012-11-29T15:05:22Z</time>
      </trkpt>
      <trkpt lat="47.1298" lon="5.47155">
        <ele>280</ele>
        <time>2012-11-29T15:05:24Z</time>
      </trkpt>
      <trkpt lat="47.12982" lon="5.4716">
        <ele>280</ele>
        <time>2012-11-29T15:05:27Z</time>
      </trkpt>
      <trkpt lat="47.12996" lon="5.47181">
        <ele>279</ele>
        <time>2012-11-29T15:05:44Z</time>
      </trkpt>
      <trkpt lat="47.13001" lon="5.47198">
        <ele>279</ele>
        <time>2012-11-29T15:05:55Z</time>
      </trkpt>
      <trkpt lat="47.13005" lon="5.47215">
        <ele>279</ele>
        <time>2012-11-29T15:06:04Z</time>
      </trkpt>
      <trkpt lat="47.13019" lon="5.47236">
        <ele>279</ele>
        <time>2012-11-29T15:06:21Z</time>
      </trkpt>
      <trkpt lat="47.13029" lon="5.4725">
        <ele>278</ele>
        <time>2012-11-29T15:06:48Z</time>
      </trkpt>
      <trkpt lat="47.13019" lon="5.47251">
        <ele>279</ele>
        <time>2012-11-29T15:07:05Z</time>
      </trkpt>
      <trkpt lat="47.13006" lon="5.47265">
        <ele>282</ele>
        <time>2012-11-29T15:07:35Z</time>
      </trkpt>
      <trkpt lat="47.12999" lon="5.47283">
        <ele>285</ele>
        <time>2012-11-29T15:07:54Z</time>
      </trkpt>
      <trkpt lat="47.12994" lon="5.47294">
        <ele>287</ele>
        <time>2012-11-29T15:08:12Z</time>
      </trkpt>
      <trkpt lat="47.12984" lon="5.47303">
        <ele>290</ele>
        <time>2012-11-29T15:08:27Z</time>
      </trkpt>
      <trkpt lat="47.12972" lon="5.47315">
        <ele>292</ele>
        <time>2012-11-29T15:08:47Z</time>
      </trkpt>
      <trkpt lat="47.12963" lon="5.4733">
        <ele>295</ele>
        <time>2012-11-29T15:09:04Z</time>
      </trkpt>
      <trkpt lat="47.12957" lon="5.47344">
        <ele>298</ele>
        <time>2012-11-29T15:09:22Z</time>
      </trkpt>
      <trkpt lat="47.12946" lon="5.4736">
        <ele>301</ele>
        <time>2012-11-29T15:09:41Z</time>
      </trkpt>
      <trkpt lat="47.12937" lon="5.47374">
        <ele>303</ele>
        <time>2012-11-29T15:10:03Z</time>
      </trkpt>
      <trkpt lat="47.12929" lon="5.47391">
        <ele>306</ele>
        <time>2012-11-29T15:10:19Z</time>
      </trkpt>
      <trkpt lat="47.12917" lon="5.47407">
        <ele>308</ele>
        <time>2012-11-29T15:10:36Z</time>
      </trkpt>
      <trkpt lat="47.12905" lon="5.47416">
        <ele>310</ele>
        <time>2012-11-29T15:10:52Z</time>
      </trkpt>
      <trkpt lat="47.12904" lon="5.47427">
        <ele>310</ele>
        <time>2012-11-29T15:11:09Z</time>
      </trkpt>
      <trkpt lat="47.12914" lon="5.47454">
        <ele>311</ele>
        <time>2012-11-29T15:11:32Z</time>
      </trkpt>
      <trkpt lat="47.12924" lon="5.47484">
        <ele>310</ele>
        <time>2012-11-29T15:11:56Z</time>
      </trkpt>
      <trkpt lat="47.12932" lon="5.47499">
        <ele>310</ele>
        <time>2012-11-29T15:12:13Z</time>
      </trkpt>
      <trkpt lat="47.12936" lon="5.47512">
        <ele>310</ele>
        <time>2012-11-29T15:13:06Z</time>
      </trkpt>
      <trkpt lat="47.12938" lon="5.47511">
        <ele>310</ele>
        <time>2012-11-29T15:13:27Z</time>
      </trkpt>
      <trkpt lat="47.12937" lon="5.47522">
        <ele>311</ele>
        <time>2012-11-29T15:14:12Z</time>
      </trkpt>
      <trkpt lat="47.12936" lon="5.47522">
        <ele>311</ele>
        <time>2012-11-29T15:14:33Z</time>
      </trkpt>
      <trkpt lat="47.12932" lon="5.47522">
        <ele>310</ele>
        <time>2012-11-29T15:14:44Z</time>
      </trkpt>
      <trkpt lat="47.12936" lon="5.47519">
        <ele>310</ele>
        <time>2012-11-29T15:15:07Z</time>
      </trkpt>
      <trkpt lat="47.1294" lon="5.47515">
        <ele>310</ele>
        <time>2012-11-29T15:15:38Z</time>
      </trkpt>
      <trkpt lat="47.12961" lon="5.47507">
        <ele>307</ele>
        <time>2012-11-29T15:16:09Z</time>
      </trkpt>
      <trkpt lat="47.12977" lon="5.47502">
        <ele>305</ele>
        <time>2012-11-29T15:16:27Z</time>
      </trkpt>
      <trkpt lat="47.12991" lon="5.47496">
        <ele>302</ele>
        <time>2012-11-29T15:16:42Z</time>
      </trkpt>
      <trkpt lat="47.13009" lon="5.47486">
        <ele>299</ele>
        <time>2012-11-29T15:16:59Z</time>
      </trkpt>
      <trkpt lat="47.13011" lon="5.47484">
        <ele>298</ele>
        <time>2012-11-29T15:17:02Z</time>
      </trkpt>
      <trkpt lat="47.13027" lon="5.47477">
        <ele>296</ele>
        <time>2012-11-29T15:17:20Z</time>
      </trkpt>
      <trkpt lat="47.1304" lon="5.47473">
        <ele>292</ele>
        <time>2012-11-29T15:17:34Z</time>
      </trkpt>
      <trkpt lat="47.13054" lon="5.47463">
        <ele>289</ele>
        <time>2012-11-29T15:17:54Z</time>
      </trkpt>
      <trkpt lat="47.13055" lon="5.47463">
        <ele>289</ele>
        <time>2012-11-29T15:17:55Z</time>
      </trkpt>
      <trkpt lat="47.13072" lon="5.47456">
        <ele>286</ele>
        <time>2012-11-29T15:18:14Z</time>
      </trkpt>
      <trkpt lat="47.13088" lon="5.47452">
        <ele>283</ele>
        <time>2012-11-29T15:18:32Z</time>
      </trkpt>
      <trkpt lat="47.13101" lon="5.47445">
        <ele>279</ele>
        <time>2012-11-29T15:18:52Z</time>
      </trkpt>
      <trkpt lat="47.13116" lon="5.47447">
        <ele>276</ele>
        <time>2012-11-29T15:19:09Z</time>
      </trkpt>
      <trkpt lat="47.13128" lon="5.47449">
        <ele>274</ele>
        <time>2012-11-29T15:19:26Z</time>
      </trkpt>
      <trkpt lat="47.1314" lon="5.47448">
        <ele>271</ele>
        <time>2012-11-29T15:19:42Z</time>
      </trkpt>
      <trkpt lat="47.13157" lon="5.47451">
        <ele>267</ele>
        <time>2012-11-29T15:20:00Z</time>
      </trkpt>
      <trkpt lat="47.13172" lon="5.47451">
        <ele>264</ele>
        <time>2012-11-29T15:20:20Z</time>
      </trkpt>
      <trkpt lat="47.13184" lon="5.47453">
        <ele>261</ele>
        <time>2012-11-29T15:20:36Z</time>
      </trkpt>
      <trkpt lat="47.13203" lon="5.47456">
        <ele>258</ele>
        <time>2012-11-29T15:20:56Z</time>
      </trkpt>
      <trkpt lat="47.13217" lon="5.47456">
        <ele>255</ele>
        <time>2012-11-29T15:21:13Z</time>
      </trkpt>
      <trkpt lat="47.1323" lon="5.4746">
        <ele>253</ele>
        <time>2012-11-29T15:21:33Z</time>
      </trkpt>
      <trkpt lat="47.13238" lon="5.47477">
        <ele>252</ele>
        <time>2012-11-29T15:21:43Z</time>
      </trkpt>
      <trkpt lat="47.13248" lon="5.47485">
        <ele>252</ele>
        <time>2012-11-29T15:21:55Z</time>
      </trkpt>
      <trkpt lat="47.13256" lon="5.47497">
        <ele>249</ele>
        <time>2012-11-29T15:22:16Z</time>
      </trkpt>
      <trkpt lat="47.13271" lon="5.47497">
        <ele>246</ele>
        <time>2012-11-29T15:22:34Z</time>
      </trkpt>
      <trkpt lat="47.13279" lon="5.47506">
        <ele>245</ele>
        <time>2012-11-29T15:22:49Z</time>
      </trkpt>
      <trkpt lat="47.13287" lon="5.47522">
        <ele>241</ele>
        <time>2012-11-29T15:23:07Z</time>
      </trkpt>
      <trkpt lat="47.133" lon="5.47531">
        <ele>239</ele>
        <time>2012-11-29T15:23:23Z</time>
      </trkpt>
      <trkpt lat="47.13316" lon="5.47545">
        <ele>236</ele>
        <time>2012-11-29T15:23:40Z</time>
      </trkpt>
      <trkpt lat="47.1332" lon="5.47552">
        <ele>234</ele>
        <time>2012-11-29T15:23:48Z</time>
      </trkpt>
      <trkpt lat="47.13327" lon="5.47562">
        <ele>233</ele>
        <time>2012-11-29T15:24:03Z</time>
      </trkpt>
      <trkpt lat="47.13324" lon="5.47583">
        <ele>232</ele>
        <time>2012-11-29T15:24:23Z</time>
      </trkpt>
      <trkpt lat="47.13332" lon="5.47587">
        <ele>230</ele>
        <time>2012-11-29T15:24:46Z</time>
      </trkpt>
      <trkpt lat="47.13336" lon="5.47592">
        <ele>228</ele>
        <time>2012-11-29T15:24:54Z</time>
      </trkpt>
      <trkpt lat="47.13346" lon="5.47614">
        <ele>227</ele>
        <time>2012-11-29T15:25:14Z</time>
      </trkpt>
      <trkpt lat="47.13351" lon="5.47625">
        <ele>226</ele>
        <time>2012-11-29T15:25:35Z</time>
      </trkpt>
      <trkpt lat="47.13356" lon="5.47648">
        <ele>224</ele>
        <time>2012-11-29T15:25:59Z</time>
      </trkpt>
      <trkpt lat="47.13357" lon="5.47653">
        <ele>221</ele>
        <time>2012-11-29T15:26:15Z</time>
      </trkpt>
      <trkpt lat="47.13371" lon="5.47673">
        <ele>217</ele>
        <time>2012-11-29T15:26:38Z</time>
      </trkpt>
      <trkpt lat="47.13383" lon="5.47691">
        <ele>215</ele>
        <time>2012-11-29T15:26:59Z</time>
      </trkpt>
      <trkpt lat="47.13394" lon="5.47706">
        <ele>212</ele>
        <time>2012-11-29T15:27:34Z</time>
      </trkpt>
      <trkpt lat="47.13396" lon="5.47704">
        <ele>210</ele>
        <time>2012-11-29T15:27:39Z</time>
      </trkpt>
      <trkpt lat="47.13389" lon="5.47709">
        <ele>210</ele>
        <time>2012-11-29T15:28:25Z</time>
      </trkpt>
      <trkpt lat="47.13392" lon="5.47723">
        <ele>209</ele>
        <time>2012-11-29T15:29:24Z</time>
      </trkpt>
      <trkpt lat="47.13404" lon="5.47742">
        <ele>208</ele>
        <time>2012-11-29T15:29:40Z</time>
      </trkpt>
      <trkpt lat="47.1341" lon="5.47751">
        <ele>207</ele>
        <time>2012-11-29T15:29:49Z</time>
      </trkpt>
      <trkpt lat="47.13414" lon="5.47754">
        <ele>207</ele>
        <time>2012-11-29T15:29:52Z</time>
      </trkpt>
      <trkpt lat="47.13415" lon="5.47757">
        <ele>207</ele>
        <time>2012-11-29T15:29:54Z</time>
      </trkpt>
      <trkpt lat="47.13417" lon="5.47761">
        <ele>207</ele>
        <time>2012-11-29T15:29:57Z</time>
      </trkpt>
      <trkpt lat="47.1342" lon="5.47783">
        <ele>207</ele>
        <time>2012-11-29T15:30:07Z</time>
      </trkpt>
      <trkpt lat="47.13422" lon="5.47789">
        <ele>207</ele>
        <time>2012-11-29T15:30:11Z</time>
      </trkpt>
      <trkpt lat="47.13424" lon="5.47827">
        <ele>207</ele>
        <time>2012-11-29T15:30:29Z</time>
      </trkpt>
      <trkpt lat="47.13425" lon="5.47842">
        <ele>207</ele>
        <time>2012-11-29T15:30:37Z</time>
      </trkpt>
      <trkpt lat="47.13439" lon="5.47875">
        <ele>207</ele>
        <time>2012-11-29T15:30:56Z</time>
      </trkpt>
      <trkpt lat="47.13449" lon="5.47898">
        <ele>206</ele>
        <time>2012-11-29T15:31:10Z</time>
      </trkpt>
      <trkpt lat="47.13454" lon="5.47917">
        <ele>206</ele>
        <time>2012-11-29T15:31:20Z</time>
      </trkpt>
      <trkpt lat="47.13456" lon="5.47925">
        <ele>206</ele>
        <time>2012-11-29T15:31:24Z</time>
      </trkpt>
      <trkpt lat="47.13461" lon="5.47933">
        <ele>206</ele>
        <time>2012-11-29T15:31:29Z</time>
      </trkpt>
      <trkpt lat="47.13463" lon="5.47936">
        <ele>206</ele>
        <time>2012-11-29T15:31:31Z</time>
      </trkpt>
      <trkpt lat="47.13464" lon="5.47939">
        <ele>206</ele>
        <time>2012-11-29T15:31:33Z</time>
      </trkpt>
      <trkpt lat="47.13468" lon="5.47957">
        <ele>206</ele>
        <time>2012-11-29T15:31:43Z</time>
      </trkpt>
      <trkpt lat="47.13475" lon="5.4797">
        <ele>206</ele>
        <time>2012-11-29T15:31:50Z</time>
      </trkpt>
      <trkpt lat="47.13481" lon="5.48002">
        <ele>206</ele>
        <time>2012-11-29T15:32:07Z</time>
      </trkpt>
      <trkpt lat="47.13488" lon="5.4802">
        <ele>206</ele>
        <time>2012-11-29T15:32:21Z</time>
      </trkpt>
      <trkpt lat="47.1349" lon="5.48021">
        <ele>206</ele>
        <time>2012-11-29T15:32:22Z</time>
      </trkpt>
      <trkpt lat="47.13503" lon="5.48046">
        <ele>206</ele>
        <time>2012-11-29T15:32:35Z</time>
      </trkpt>
      <trkpt lat="47.13506" lon="5.48069">
        <ele>207</ele>
        <time>2012-11-29T15:32:49Z</time>
      </trkpt>
      <trkpt lat="47.13507" lon="5.48091">
        <ele>208</ele>
        <time>2012-11-29T15:33:01Z</time>
      </trkpt>
      <trkpt lat="47.13508" lon="5.48098">
        <ele>208</ele>
        <time>2012-11-29T15:33:05Z</time>
      </trkpt>
      <trkpt lat="47.13508" lon="5.48108">
        <ele>208</ele>
        <time>2012-11-29T15:33:10Z</time>
      </trkpt>
      <trkpt lat="47.13511" lon="5.48133">
        <ele>209</ele>
        <time>2012-11-29T15:33:24Z</time>
      </trkpt>
      <trkpt lat="47.13512" lon="5.48153">
        <ele>211</ele>
        <time>2012-11-29T15:33:36Z</time>
      </trkpt>
      <trkpt lat="47.13512" lon="5.48182">
        <ele>213</ele>
        <time>2012-11-29T15:33:52Z</time>
      </trkpt>
      <trkpt lat="47.13514" lon="5.48204">
        <ele>215</ele>
        <time>2012-11-29T15:34:07Z</time>
      </trkpt>
      <trkpt lat="47.13514" lon="5.48223">
        <ele>216</ele>
        <time>2012-11-29T15:34:20Z</time>
      </trkpt>
      <trkpt lat="47.13513" lon="5.48268">
        <ele>219</ele>
        <time>2012-11-29T15:34:46Z</time>
      </trkpt>
      <trkpt lat="47.13513" lon="5.4831">
        <ele>222</ele>
        <time>2012-11-29T15:35:08Z</time>
      </trkpt>
      <trkpt lat="47.13514" lon="5.48348">
        <ele>225</ele>
        <time>2012-11-29T15:35:29Z</time>
      </trkpt>
      <trkpt lat="47.13513" lon="5.48365">
        <ele>227</ele>
        <time>2012-11-29T15:35:40Z</time>
      </trkpt>
      <trkpt lat="47.13512" lon="5.484">
        <ele>230</ele>
        <time>2012-11-29T15:36:00Z</time>
      </trkpt>
      <trkpt lat="47.13512" lon="5.48419">
        <ele>231</ele>
        <time>2012-11-29T15:36:12Z</time>
      </trkpt>
      <trkpt lat="47.13506" lon="5.4844">
        <ele>234</ele>
        <time>2012-11-29T15:36:30Z</time>
      </trkpt>
      <trkpt lat="47.13505" lon="5.48461">
        <ele>236</ele>
        <time>2012-11-29T15:36:44Z</time>
      </trkpt>
      <trkpt lat="47.13501" lon="5.4849">
        <ele>239</ele>
        <time>2012-11-29T15:37:05Z</time>
      </trkpt>
      <trkpt lat="47.13503" lon="5.48513">
        <ele>240</ele>
        <time>2012-11-29T15:37:20Z</time>
      </trkpt>
      <trkpt lat="47.13502" lon="5.48538">
        <ele>243</ele>
        <time>2012-11-29T15:37:36Z</time>
      </trkpt>
      <trkpt lat="47.13498" lon="5.48562">
        <ele>245</ele>
        <time>2012-11-29T15:37:55Z</time>
      </trkpt>
      <trkpt lat="47.13494" lon="5.48582">
        <ele>247</ele>
        <time>2012-11-29T15:38:12Z</time>
      </trkpt>
      <trkpt lat="47.13494" lon="5.48599">
        <ele>250</ele>
        <time>2012-11-29T15:38:27Z</time>
      </trkpt>
      <trkpt lat="47.13493" lon="5.48628">
        <ele>252</ele>
        <time>2012-11-29T15:38:45Z</time>
      </trkpt>
      <trkpt lat="47.13491" lon="5.48653">
        <ele>254</ele>
        <time>2012-11-29T15:38:59Z</time>
      </trkpt>
      <trkpt lat="47.13488" lon="5.48671">
        <ele>255</ele>
        <time>2012-11-29T15:39:11Z</time>
      </trkpt>
      <trkpt lat="47.13482" lon="5.48702">
        <ele>258</ele>
        <time>2012-11-29T15:39:30Z</time>
      </trkpt>
      <trkpt lat="47.13482" lon="5.48739">
        <ele>261</ele>
        <time>2012-11-29T15:39:50Z</time>
      </trkpt>
      <trkpt lat="47.13488" lon="5.48781">
        <ele>263</ele>
        <time>2012-11-29T15:40:10Z</time>
      </trkpt>
      <trkpt lat="47.13486" lon="5.48794">
        <ele>263</ele>
        <time>2012-11-29T15:40:28Z</time>
      </trkpt>
      <trkpt lat="47.13486" lon="5.48794">
        <ele>263</ele>
        <time>2012-11-29T15:41:46Z</time>
      </trkpt>
      <trkpt lat="47.13488" lon="5.4881">
        <ele>261</ele>
        <time>2012-11-29T15:43:14Z</time>
      </trkpt>
      <trkpt lat="47.13498" lon="5.48836">
        <ele>258</ele>
        <time>2012-11-29T15:43:34Z</time>
      </trkpt>
      <trkpt lat="47.13505" lon="5.48861">
        <ele>256</ele>
        <time>2012-11-29T15:43:48Z</time>
      </trkpt>
      <trkpt lat="47.1351" lon="5.48892">
        <ele>254</ele>
        <time>2012-11-29T15:44:08Z</time>
      </trkpt>
      <trkpt lat="47.13518" lon="5.48921">
        <ele>252</ele>
        <time>2012-11-29T15:44:26Z</time>
      </trkpt>
      <trkpt lat="47.13527" lon="5.48963">
        <ele>250</ele>
        <time>2012-11-29T15:44:48Z</time>
      </trkpt>
      <trkpt lat="47.1353" lon="5.48979">
        <ele>249</ele>
        <time>2012-11-29T15:44:56Z</time>
      </trkpt>
      <trkpt lat="47.13539" lon="5.49004">
        <ele>248</ele>
        <time>2012-11-29T15:45:11Z</time>
      </trkpt>
      <trkpt lat="47.13547" lon="5.49023">
        <ele>247</ele>
        <time>2012-11-29T15:45:22Z</time>
      </trkpt>
      <trkpt lat="47.13552" lon="5.49026">
        <ele>247</ele>
        <time>2012-11-29T15:45:26Z</time>
      </trkpt>
      <trkpt lat="47.13559" lon="5.4904">
        <ele>246</ele>
        <time>2012-11-29T15:45:40Z</time>
      </trkpt>
      <trkpt lat="47.1356" lon="5.49063">
        <ele>247</ele>
        <time>2012-11-29T15:45:57Z</time>
      </trkpt>
      <trkpt lat="47.13563" lon="5.49083">
        <ele>248</ele>
        <time>2012-11-29T15:46:08Z</time>
      </trkpt>
      <trkpt lat="47.13565" lon="5.49092">
        <ele>248</ele>
        <time>2012-11-29T15:46:12Z</time>
      </trkpt>
      <trkpt lat="47.13566" lon="5.49097">
        <ele>248</ele>
        <time>2012-11-29T15:46:15Z</time>
      </trkpt>
      <trkpt lat="47.13569" lon="5.49108">
        <ele>248</ele>
        <time>2012-11-29T15:46:21Z</time>
      </trkpt>
      <trkpt lat="47.13569" lon="5.49112">
        <ele>248</ele>
        <time>2012-11-29T15:46:23Z</time>
      </trkpt>
      <trkpt lat="47.13577" lon="5.49141">
        <ele>250</ele>
        <time>2012-11-29T15:46:39Z</time>
      </trkpt>
      <trkpt lat="47.13579" lon="5.49168">
        <ele>251</ele>
        <time>2012-11-29T15:46:55Z</time>
      </trkpt>
      <trkpt lat="47.1358" lon="5.49179">
        <ele>252</ele>
        <time>2012-11-29T15:47:01Z</time>
      </trkpt>
      <trkpt lat="47.13574" lon="5.49195">
        <ele>253</ele>
        <time>2012-11-29T15:47:18Z</time>
      </trkpt>
      <trkpt lat="47.13562" lon="5.49214">
        <ele>255</ele>
        <time>2012-11-29T15:47:38Z</time>
      </trkpt>
      <trkpt lat="47.13558" lon="5.49247">
        <ele>257</ele>
        <time>2012-11-29T15:48:01Z</time>
      </trkpt>
      <trkpt lat="47.13558" lon="5.49249">
        <ele>257</ele>
        <time>2012-11-29T15:48:02Z</time>
      </trkpt>
      <trkpt lat="47.1356" lon="5.49273">
        <ele>256</ele>
        <time>2012-11-29T15:48:20Z</time>
      </trkpt>
      <trkpt lat="47.13559" lon="5.49303">
        <ele>256</ele>
        <time>2012-11-29T15:48:39Z</time>
      </trkpt>
      <trkpt lat="47.13542" lon="5.4933">
        <ele>257</ele>
        <time>2012-11-29T15:48:59Z</time>
      </trkpt>
      <trkpt lat="47.13527" lon="5.49351">
        <ele>258</ele>
        <time>2012-11-29T15:49:14Z</time>
      </trkpt>
      <trkpt lat="47.13524" lon="5.49352">
        <ele>258</ele>
        <time>2012-11-29T15:49:16Z</time>
      </trkpt>
      <trkpt lat="47.1352" lon="5.49356">
        <ele>259</ele>
        <time>2012-11-29T15:49:21Z</time>
      </trkpt>
      <trkpt lat="47.13505" lon="5.49355">
        <ele>259</ele>
        <time>2012-11-29T15:49:37Z</time>
      </trkpt>
      <trkpt lat="47.13496" lon="5.49364">
        <ele>260</ele>
        <time>2012-11-29T15:49:46Z</time>
      </trkpt>
      <trkpt lat="47.13482" lon="5.49378">
        <ele>260</ele>
        <time>2012-11-29T15:49:58Z</time>
      </trkpt>
      <trkpt lat="47.13467" lon="5.49381">
        <ele>261</ele>
        <time>2012-11-29T15:50:13Z</time>
      </trkpt>
      <trkpt lat="47.1346" lon="5.49376">
        <ele>262</ele>
        <time>2012-11-29T15:50:20Z</time>
      </trkpt>
      <trkpt lat="47.13448" lon="5.4936">
        <ele>263</ele>
        <time>2012-11-29T15:50:36Z</time>
      </trkpt>
      <trkpt lat="47.13426" lon="5.49325">
        <ele>264</ele>
        <time>2012-11-29T15:51:05Z</time>
      </trkpt>
      <trkpt lat="47.13404" lon="5.49305">
        <ele>266</ele>
        <time>2012-11-29T15:51:28Z</time>
      </trkpt>
      <trkpt lat="47.13388" lon="5.49291">
        <ele>267</ele>
        <time>2012-11-29T15:51:46Z</time>
      </trkpt>
      <trkpt lat="47.13371" lon="5.49272">
        <ele>268</ele>
        <time>2012-11-29T15:52:06Z</time>
      </trkpt>
      <trkpt lat="47.13353" lon="5.49264">
        <ele>269</ele>
        <time>2012-11-29T15:52:26Z</time>
      </trkpt>
      <trkpt lat="47.13337" lon="5.49266">
        <ele>270</ele>
        <time>2012-11-29T15:52:39Z</time>
      </trkpt>
      <trkpt lat="47.13328" lon="5.49267">
        <ele>271</ele>
        <time>2012-11-29T15:52:48Z</time>
      </trkpt>
      <trkpt lat="47.13315" lon="5.49264">
        <ele>271</ele>
        <time>2012-11-29T15:53:02Z</time>
      </trkpt>
      <trkpt lat="47.13306" lon="5.49265">
        <ele>272</ele>
        <time>2012-11-29T15:53:10Z</time>
      </trkpt>
      <trkpt lat="47.1329" lon="5.49276">
        <ele>272</ele>
        <time>2012-11-29T15:53:31Z</time>
      </trkpt>
      <trkpt lat="47.13291" lon="5.4929">
        <ele>271</ele>
        <time>2012-11-29T15:53:48Z</time>
      </trkpt>
      <trkpt lat="47.13295" lon="5.49306">
        <ele>270</ele>
        <time>2012-11-29T15:54:06Z</time>
      </trkpt>
      <trkpt lat="47.1329" lon="5.49331">
        <ele>271</ele>
        <time>2012-11-29T15:54:23Z</time>
      </trkpt>
      <trkpt lat="47.13296" lon="5.49353">
        <ele>270</ele>
        <time>2012-11-29T15:54:44Z</time>
      </trkpt>
      <trkpt lat="47.13305" lon="5.49382">
        <ele>268</ele>
        <time>2012-11-29T15:55:05Z</time>
      </trkpt>
      <trkpt lat="47.1331" lon="5.49408">
        <ele>266</ele>
        <time>2012-11-29T15:55:28Z</time>
      </trkpt>
      <trkpt lat="47.13301" lon="5.49436">
        <ele>265</ele>
        <time>2012-11-29T15:55:47Z</time>
      </trkpt>
      <trkpt lat="47.13289" lon="5.49454">
        <ele>264</ele>
        <time>2012-11-29T15:55:59Z</time>
      </trkpt>
      <trkpt lat="47.13278" lon="5.49471">
        <ele>265</ele>
        <time>2012-11-29T15:56:08Z</time>
      </trkpt>
      <trkpt lat="47.1326" lon="5.49492">
        <ele>265</ele>
        <time>2012-11-29T15:56:25Z</time>
      </trkpt>
      <trkpt lat="47.13255" lon="5.49497">
        <ele>265</ele>
        <time>2012-11-29T15:56:32Z</time>
      </trkpt>
      <trkpt lat="47.13239" lon="5.49498">
        <ele>266</ele>
        <time>2012-11-29T15:56:47Z</time>
      </trkpt>
      <trkpt lat="47.13235" lon="5.49501">
        <ele>266</ele>
        <time>2012-11-29T15:56:52Z</time>
      </trkpt>
      <trkpt lat="47.13226" lon="5.49507">
        <ele>266</ele>
        <time>2012-11-29T15:57:00Z</time>
      </trkpt>
      <trkpt lat="47.13213" lon="5.4951">
        <ele>266</ele>
        <time>2012-11-29T15:57:14Z</time>
      </trkpt>
      <trkpt lat="47.13199" lon="5.49512">
        <ele>266</ele>
        <time>2012-11-29T15:57:28Z</time>
      </trkpt>
      <trkpt lat="47.1319" lon="5.49518">
        <ele>266</ele>
        <time>2012-11-29T15:57:43Z</time>
      </trkpt>
      <trkpt lat="47.13184" lon="5.49521">
        <ele>265</ele>
        <time>2012-11-29T15:57:58Z</time>
      </trkpt>
      <trkpt lat="47.13175" lon="5.49522">
        <ele>264</ele>
        <time>2012-11-29T15:58:20Z</time>
      </trkpt>
      <trkpt lat="47.13164" lon="5.49528">
        <ele>263</ele>
        <time>2012-11-29T15:58:41Z</time>
      </trkpt>
      <trkpt lat="47.13159" lon="5.49538">
        <ele>262</ele>
        <time>2012-11-29T15:58:56Z</time>
      </trkpt>
      <trkpt lat="47.13151" lon="5.49547">
        <ele>259</ele>
        <time>2012-11-29T15:59:11Z</time>
      </trkpt>
      <trkpt lat="47.13152" lon="5.49552">
        <ele>258</ele>
        <time>2012-11-29T15:59:15Z</time>
      </trkpt>
      <trkpt lat="47.13152" lon="5.49572">
        <ele>257</ele>
        <time>2012-11-29T15:59:29Z</time>
      </trkpt>
      <trkpt lat="47.13154" lon="5.4958">
        <ele>257</ele>
        <time>2012-11-29T15:59:49Z</time>
      </trkpt>
      <trkpt lat="47.1316" lon="5.49586">
        <ele>256</ele>
        <time>2012-11-29T16:00:25Z</time>
      </trkpt>
      <trkpt lat="47.13169" lon="5.49586">
        <ele>256</ele>
        <time>2012-11-29T16:00:48Z</time>
      </trkpt>
      <trkpt lat="47.13154" lon="5.49587">
        <ele>256</ele>
        <time>2012-11-29T16:01:34Z</time>
      </trkpt>
      <trkpt lat="47.13147" lon="5.49594">
        <ele>256</ele>
        <time>2012-11-29T16:01:52Z</time>
      </trkpt>
      <trkpt lat="47.13142" lon="5.49599">
        <ele>253</ele>
        <time>2012-11-29T16:05:45Z</time>
      </trkpt>
      <trkpt lat="47.13143" lon="5.496">
        <ele>253</ele>
        <time>2012-11-29T16:07:22Z</time>
      </trkpt>
      <trkpt lat="47.13139" lon="5.49596">
        <ele>252</ele>
        <time>2012-11-29T16:08:30Z</time>
      </trkpt>
      <trkpt lat="47.13137" lon="5.49596">
        <ele>252</ele>
        <time>2012-11-29T16:08:52Z</time>
      </trkpt>
      <trkpt lat="47.13133" lon="5.49598">
        <ele>253</ele>
        <time>2012-11-29T16:09:10Z</time>
      </trkpt>
      <trkpt lat="47.13131" lon="5.49599">
        <ele>253</ele>
        <time>2012-11-29T16:09:14Z</time>
      </trkpt>
      <trkpt lat="47.13127" lon="5.496">
        <ele>253</ele>
        <time>2012-11-29T16:09:18Z</time>
      </trkpt>
      <trkpt lat="47.13108" lon="5.49606">
        <ele>254</ele>
        <time>2012-11-29T16:09:33Z</time>
      </trkpt>
      <trkpt lat="47.13106" lon="5.49607">
        <ele>253</ele>
        <time>2012-11-29T16:09:35Z</time>
      </trkpt>
      <trkpt lat="47.13103" lon="5.49609">
        <ele>253</ele>
        <time>2012-11-29T16:09:37Z</time>
      </trkpt>
      <trkpt lat="47.13095" lon="5.49613">
        <ele>253</ele>
        <time>2012-11-29T16:09:44Z</time>
      </trkpt>
      <trkpt lat="47.13078" lon="5.49622">
        <ele>252</ele>
        <time>2012-11-29T16:09:56Z</time>
      </trkpt>
      <trkpt lat="47.13071" lon="5.49625">
        <ele>252</ele>
        <time>2012-11-29T16:10:02Z</time>
      </trkpt>
      <trkpt lat="47.13055" lon="5.49632">
        <ele>250</ele>
        <time>2012-11-29T16:10:16Z</time>
      </trkpt>
      <trkpt lat="47.13054" lon="5.49632">
        <ele>250</ele>
        <time>2012-11-29T16:10:17Z</time>
      </trkpt>
      <trkpt lat="47.13043" lon="5.49623">
        <ele>249</ele>
        <time>2012-11-29T16:10:25Z</time>
      </trkpt>
      <trkpt lat="47.13036" lon="5.49607">
        <ele>250</ele>
        <time>2012-11-29T16:10:37Z</time>
      </trkpt>
      <trkpt lat="47.13026" lon="5.49597">
        <ele>252</ele>
        <time>2012-11-29T16:10:50Z</time>
      </trkpt>
      <trkpt lat="47.13014" lon="5.49584">
        <ele>254</ele>
        <time>2012-11-29T16:11:05Z</time>
      </trkpt>
      <trkpt lat="47.13008" lon="5.49578">
        <ele>255</ele>
        <time>2012-11-29T16:11:11Z</time>
      </trkpt>
      <trkpt lat="47.13003" lon="5.49572">
        <ele>256</ele>
        <time>2012-11-29T16:11:17Z</time>
      </trkpt>
      <trkpt lat="47.12996" lon="5.49566">
        <ele>257</ele>
        <time>2012-11-29T16:11:24Z</time>
      </trkpt>
      <trkpt lat="47.12987" lon="5.49556">
        <ele>258</ele>
        <time>2012-11-29T16:11:36Z</time>
      </trkpt>
      <trkpt lat="47.12985" lon="5.49552">
        <ele>259</ele>
        <time>2012-11-29T16:11:41Z</time>
      </trkpt>
      <trkpt lat="47.12976" lon="5.49544">
        <ele>260</ele>
        <time>2012-11-29T16:11:48Z</time>
      </trkpt>
      <trkpt lat="47.12973" lon="5.49541">
        <ele>261</ele>
        <time>2012-11-29T16:11:52Z</time>
      </trkpt>
      <trkpt lat="47.1297" lon="5.49537">
        <ele>261</ele>
        <time>2012-11-29T16:11:55Z</time>
      </trkpt>
      <trkpt lat="47.12971" lon="5.49537">
        <ele>261</ele>
        <time>2012-11-29T16:11:57Z</time>
      </trkpt>
      <trkpt lat="47.12965" lon="5.49529">
        <ele>263</ele>
        <time>2012-11-29T16:12:05Z</time>
      </trkpt>
      <trkpt lat="47.12951" lon="5.49515">
        <ele>264</ele>
        <time>2012-11-29T16:12:18Z</time>
      </trkpt>
      <trkpt lat="47.12945" lon="5.49511">
        <ele>265</ele>
        <time>2012-11-29T16:12:23Z</time>
      </trkpt>
      <trkpt lat="47.12938" lon="5.495">
        <ele>266</ele>
        <time>2012-11-29T16:12:41Z</time>
      </trkpt>
      <trkpt lat="47.12937" lon="5.495">
        <ele>266</ele>
        <time>2012-11-29T16:12:45Z</time>
      </trkpt>
      <trkpt lat="47.12934" lon="5.49494">
        <ele>267</ele>
        <time>2012-11-29T16:12:49Z</time>
      </trkpt>
      <trkpt lat="47.12928" lon="5.49491">
        <ele>267</ele>
        <time>2012-11-29T16:12:54Z</time>
      </trkpt>
      <trkpt lat="47.12925" lon="5.49489">
        <ele>267</ele>
        <time>2012-11-29T16:12:56Z</time>
      </trkpt>
      <trkpt lat="47.12922" lon="5.49486">
        <ele>268</ele>
        <time>2012-11-29T16:12:59Z</time>
      </trkpt>
      <trkpt lat="47.12918" lon="5.49485">
        <ele>268</ele>
        <time>2012-11-29T16:13:02Z</time>
      </trkpt>
      <trkpt lat="47.12915" lon="5.49484">
        <ele>269</ele>
        <time>2012-11-29T16:13:05Z</time>
      </trkpt>
      <trkpt lat="47.12899" lon="5.49469">
        <ele>270</ele>
        <time>2012-11-29T16:13:21Z</time>
      </trkpt>
      <trkpt lat="47.12894" lon="5.49468">
        <ele>270</ele>
        <time>2012-11-29T16:13:24Z</time>
      </trkpt>
      <trkpt lat="47.12882" lon="5.49461">
        <ele>271</ele>
        <time>2012-11-29T16:13:35Z</time>
      </trkpt>
      <trkpt lat="47.12879" lon="5.49458">
        <ele>272</ele>
        <time>2012-11-29T16:13:38Z</time>
      </trkpt>
      <trkpt lat="47.12867" lon="5.49448">
        <ele>273</ele>
        <time>2012-11-29T16:13:53Z</time>
      </trkpt>
      <trkpt lat="47.12845" lon="5.49433">
        <ele>274</ele>
        <time>2012-11-29T16:14:11Z</time>
      </trkpt>
      <trkpt lat="47.12828" lon="5.49415">
        <ele>276</ele>
        <time>2012-11-29T16:14:28Z</time>
      </trkpt>
      <trkpt lat="47.12841" lon="5.49399">
        <ele>277</ele>
        <time>2012-11-29T16:14:44Z</time>
      </trkpt>
      <trkpt lat="47.12853" lon="5.49363">
        <ele>278</ele>
        <time>2012-11-29T16:15:08Z</time>
      </trkpt>
      <trkpt lat="47.12872" lon="5.49345">
        <ele>279</ele>
        <time>2012-11-29T16:15:23Z</time>
      </trkpt>
      <trkpt lat="47.12876" lon="5.49344">
        <ele>278</ele>
        <time>2012-11-29T16:15:25Z</time>
      </trkpt>
      <trkpt lat="47.12887" lon="5.49333">
        <ele>279</ele>
        <time>2012-11-29T16:15:37Z</time>
      </trkpt>
      <trkpt lat="47.12901" lon="5.49318">
        <ele>280</ele>
        <time>2012-11-29T16:15:54Z</time>
      </trkpt>
      <trkpt lat="47.12919" lon="5.49286">
        <ele>282</ele>
        <time>2012-11-29T16:16:12Z</time>
      </trkpt>
      <trkpt lat="47.12932" lon="5.4926">
        <ele>285</ele>
        <time>2012-11-29T16:16:33Z</time>
      </trkpt>
      <trkpt lat="47.12947" lon="5.49239">
        <ele>288</ele>
        <time>2012-11-29T16:16:55Z</time>
      </trkpt>
      <trkpt lat="47.12947" lon="5.49226">
        <ele>289</ele>
        <time>2012-11-29T16:17:09Z</time>
      </trkpt>
      <trkpt lat="47.12945" lon="5.49219">
        <ele>289</ele>
        <time>2012-11-29T16:17:11Z</time>
      </trkpt>
      <trkpt lat="47.12939" lon="5.49206">
        <ele>289</ele>
        <time>2012-11-29T16:17:19Z</time>
      </trkpt>
      <trkpt lat="47.12934" lon="5.49201">
        <ele>289</ele>
        <time>2012-11-29T16:17:24Z</time>
      </trkpt>
      <trkpt lat="47.12925" lon="5.49188">
        <ele>290</ele>
        <time>2012-11-29T16:17:37Z</time>
      </trkpt>
      <trkpt lat="47.12916" lon="5.49176">
        <ele>290</ele>
        <time>2012-11-29T16:17:49Z</time>
      </trkpt>
      <trkpt lat="47.12906" lon="5.49156">
        <ele>291</ele>
        <time>2012-11-29T16:18:06Z</time>
      </trkpt>
      <trkpt lat="47.12896" lon="5.49132">
        <ele>290</ele>
        <time>2012-11-29T16:18:26Z</time>
      </trkpt>
      <trkpt lat="47.1289" lon="5.49102">
        <ele>292</ele>
        <time>2012-11-29T16:18:50Z</time>
      </trkpt>
      <trkpt lat="47.12884" lon="5.49079">
        <ele>295</ele>
        <time>2012-11-29T16:19:10Z</time>
      </trkpt>
      <trkpt lat="47.12881" lon="5.49062">
        <ele>298</ele>
        <time>2012-11-29T16:19:24Z</time>
      </trkpt>
      <trkpt lat="47.12874" lon="5.49048">
        <ele>302</ele>
        <time>2012-11-29T16:19:35Z</time>
      </trkpt>
      <trkpt lat="47.12874" lon="5.49043">
        <ele>303</ele>
        <time>2012-11-29T16:19:40Z</time>
      </trkpt>
      <trkpt lat="47.12866" lon="5.49022">
        <ele>306</ele>
        <time>2012-11-29T16:19:56Z</time>
      </trkpt>
      <trkpt lat="47.12865" lon="5.49007">
        <ele>308</ele>
        <time>2012-11-29T16:20:17Z</time>
      </trkpt>
      <trkpt lat="47.12866" lon="5.48979">
        <ele>309</ele>
        <time>2012-11-29T16:20:38Z</time>
      </trkpt>
      <trkpt lat="47.12866" lon="5.48961">
        <ele>310</ele>
        <time>2012-11-29T16:20:52Z</time>
      </trkpt>
      <trkpt lat="47.12847" lon="5.48965">
        <ele>311</ele>
        <time>2012-11-29T16:21:08Z</time>
      </trkpt>
      <trkpt lat="47.12836" lon="5.48963">
        <ele>311</ele>
        <time>2012-11-29T16:21:20Z</time>
      </trkpt>
      <trkpt lat="47.12814" lon="5.48969">
        <ele>311</ele>
        <time>2012-11-29T16:21:38Z</time>
      </trkpt>
      <trkpt lat="47.12807" lon="5.48972">
        <ele>312</ele>
        <time>2012-11-29T16:21:44Z</time>
      </trkpt>
      <trkpt lat="47.12789" lon="5.48979">
        <ele>312</ele>
        <time>2012-11-29T16:22:00Z</time>
      </trkpt>
      <trkpt lat="47.12775" lon="5.48977">
        <ele>313</ele>
        <time>2012-11-29T16:22:14Z</time>
      </trkpt>
      <trkpt lat="47.12752" lon="5.48982">
        <ele>313</ele>
        <time>2012-11-29T16:22:33Z</time>
      </trkpt>
      <trkpt lat="47.12737" lon="5.48985">
        <ele>314</ele>
        <time>2012-11-29T16:22:48Z</time>
      </trkpt>
      <trkpt lat="47.12728" lon="5.48985">
        <ele>314</ele>
        <time>2012-11-29T16:22:55Z</time>
      </trkpt>
      <trkpt lat="47.12709" lon="5.48985">
        <ele>313</ele>
        <time>2012-11-29T16:23:11Z</time>
      </trkpt>
      <trkpt lat="47.12705" lon="5.48986">
        <ele>313</ele>
        <time>2012-11-29T16:23:15Z</time>
      </trkpt>
      <trkpt lat="47.1269" lon="5.48991">
        <ele>313</ele>
        <time>2012-11-29T16:23:29Z</time>
      </trkpt>
      <trkpt lat="47.12686" lon="5.4899">
        <ele>313</ele>
        <time>2012-11-29T16:23:32Z</time>
      </trkpt>
      <trkpt lat="47.12671" lon="5.48999">
        <ele>312</ele>
        <time>2012-11-29T16:23:48Z</time>
      </trkpt>
      <trkpt lat="47.1267" lon="5.49">
        <ele>312</ele>
        <time>2012-11-29T16:23:49Z</time>
      </trkpt>
      <trkpt lat="47.1266" lon="5.49008">
        <ele>311</ele>
        <time>2012-11-29T16:23:59Z</time>
      </trkpt>
      <trkpt lat="47.12655" lon="5.4901">
        <ele>311</ele>
        <time>2012-11-29T16:24:17Z</time>
      </trkpt>
      <trkpt lat="47.1264" lon="5.49011">
        <ele>310</ele>
        <time>2012-11-29T16:24:37Z</time>
      </trkpt>
      <trkpt lat="47.12637" lon="5.49011">
        <ele>310</ele>
        <time>2012-11-29T16:24:39Z</time>
      </trkpt>
      <trkpt lat="47.12618" lon="5.49027">
        <ele>309</ele>
        <time>2012-11-29T16:24:53Z</time>
      </trkpt>
      <trkpt lat="47.12598" lon="5.49036">
        <ele>308</ele>
        <time>2012-11-29T16:25:12Z</time>
      </trkpt>
      <trkpt lat="47.12579" lon="5.49041">
        <ele>307</ele>
        <time>2012-11-29T16:25:27Z</time>
      </trkpt>
      <trkpt lat="47.12562" lon="5.4903">
        <ele>306</ele>
        <time>2012-11-29T16:25:43Z</time>
      </trkpt>
      <trkpt lat="47.12558" lon="5.4903">
        <ele>307</ele>
        <time>2012-11-29T16:25:46Z</time>
      </trkpt>
      <trkpt lat="47.12538" lon="5.49022">
        <ele>306</ele>
        <time>2012-11-29T16:26:00Z</time>
      </trkpt>
      <trkpt lat="47.12534" lon="5.49019">
        <ele>306</ele>
        <time>2012-11-29T16:26:03Z</time>
      </trkpt>
      <trkpt lat="47.1252" lon="5.49015">
        <ele>306</ele>
        <time>2012-11-29T16:26:15Z</time>
      </trkpt>
      <trkpt lat="47.12507" lon="5.49005">
        <ele>305</ele>
        <time>2012-11-29T16:26:33Z</time>
      </trkpt>
      <trkpt lat="47.12507" lon="5.49004">
        <ele>305</ele>
        <time>2012-11-29T16:26:34Z</time>
      </trkpt>
      <trkpt lat="47.12502" lon="5.48999">
        <ele>305</ele>
        <time>2012-11-29T16:26:40Z</time>
      </trkpt>
      <trkpt lat="47.12494" lon="5.48998">
        <ele>305</ele>
        <time>2012-11-29T16:26:45Z</time>
      </trkpt>
      <trkpt lat="47.12485" lon="5.48989">
        <ele>304</ele>
        <time>2012-11-29T16:26:54Z</time>
      </trkpt>
      <trkpt lat="47.12481" lon="5.48983">
        <ele>304</ele>
        <time>2012-11-29T16:26:59Z</time>
      </trkpt>
      <trkpt lat="47.1248" lon="5.4898">
        <ele>304</ele>
        <time>2012-11-29T16:27:01Z</time>
      </trkpt>
      <trkpt lat="47.12469" lon="5.48969">
        <ele>303</ele>
        <time>2012-11-29T16:27:13Z</time>
      </trkpt>
      <trkpt lat="47.12461" lon="5.48969">
        <ele>302</ele>
        <time>2012-11-29T16:27:21Z</time>
      </trkpt>
      <trkpt lat="47.12447" lon="5.48971">
        <ele>301</ele>
        <time>2012-11-29T16:27:37Z</time>
      </trkpt>
      <trkpt lat="47.12443" lon="5.48975">
        <ele>301</ele>
        <time>2012-11-29T16:27:48Z</time>
      </trkpt>
      <trkpt lat="47.12434" lon="5.48988">
        <ele>303</ele>
        <time>2012-11-29T16:28:02Z</time>
      </trkpt>
      <trkpt lat="47.1242" lon="5.48984">
        <ele>305</ele>
        <time>2012-11-29T16:28:20Z</time>
      </trkpt>
      <trkpt lat="47.12413" lon="5.48972">
        <ele>306</ele>
        <time>2012-11-29T16:28:34Z</time>
      </trkpt>
      <trkpt lat="47.12406" lon="5.48966">
        <ele>307</ele>
        <time>2012-11-29T16:28:39Z</time>
      </trkpt>
      <trkpt lat="47.12397" lon="5.48972">
        <ele>307</ele>
        <time>2012-11-29T16:28:52Z</time>
      </trkpt>
      <trkpt lat="47.12386" lon="5.48963">
        <ele>307</ele>
        <time>2012-11-29T16:29:02Z</time>
      </trkpt>
      <trkpt lat="47.12368" lon="5.48962">
        <ele>306</ele>
        <time>2012-11-29T16:29:16Z</time>
      </trkpt>
      <trkpt lat="47.12351" lon="5.48957">
        <ele>306</ele>
        <time>2012-11-29T16:29:31Z</time>
      </trkpt>
      <trkpt lat="47.12349" lon="5.48959">
        <ele>306</ele>
        <time>2012-11-29T16:30:05Z</time>
      </trkpt>
      <trkpt lat="47.12347" lon="5.48952">
        <ele>306</ele>
        <time>2012-11-29T16:30:29Z</time>
      </trkpt>
      <trkpt lat="47.12343" lon="5.48951">
        <ele>306</ele>
        <time>2012-11-29T16:31:07Z</time>
      </trkpt>
      <trkpt lat="47.12348" lon="5.48932">
        <ele>308</ele>
        <time>2012-11-29T16:34:19Z</time>
      </trkpt>
      <trkpt lat="47.12349" lon="5.48912">
        <ele>308</ele>
        <time>2012-11-29T16:34:32Z</time>
      </trkpt>
      <trkpt lat="47.12349" lon="5.48871">
        <ele>308</ele>
        <time>2012-11-29T16:34:54Z</time>
      </trkpt>
      <trkpt lat="47.12355" lon="5.48851">
        <ele>309</ele>
        <time>2012-11-29T16:35:11Z</time>
      </trkpt>
      <trkpt lat="47.1237" lon="5.48836">
        <ele>311</ele>
        <time>2012-11-29T16:35:34Z</time>
      </trkpt>
      <trkpt lat="47.12375" lon="5.48808">
        <ele>312</ele>
        <time>2012-11-29T16:35:56Z</time>
      </trkpt>
      <trkpt lat="47.12389" lon="5.48774">
        <ele>311</ele>
        <time>2012-11-29T16:36:18Z</time>
      </trkpt>
      <trkpt lat="47.12395" lon="5.48755">
        <ele>310</ele>
        <time>2012-11-29T16:36:34Z</time>
      </trkpt>
      <trkpt lat="47.12415" lon="5.48745">
        <ele>311</ele>
        <time>2012-11-29T16:36:55Z</time>
      </trkpt>
      <trkpt lat="47.1243" lon="5.48753">
        <ele>312</ele>
        <time>2012-11-29T16:37:09Z</time>
      </trkpt>
      <trkpt lat="47.12433" lon="5.48749">
        <ele>312</ele>
        <time>2012-11-29T16:37:14Z</time>
      </trkpt>
      <trkpt lat="47.12461" lon="5.48736">
        <ele>313</ele>
        <time>2012-11-29T16:37:33Z</time>
      </trkpt>
      <trkpt lat="47.12468" lon="5.48718">
        <ele>313</ele>
        <time>2012-11-29T16:37:48Z</time>
      </trkpt>
      <trkpt lat="47.12489" lon="5.48705">
        <ele>314</ele>
        <time>2012-11-29T16:38:09Z</time>
      </trkpt>
      <trkpt lat="47.12495" lon="5.48682">
        <ele>313</ele>
        <time>2012-11-29T16:38:27Z</time>
      </trkpt>
      <trkpt lat="47.12486" lon="5.48678">
        <ele>313</ele>
        <time>2012-11-29T16:38:34Z</time>
      </trkpt>
      <trkpt lat="47.12482" lon="5.48673">
        <ele>313</ele>
        <time>2012-11-29T16:38:38Z</time>
      </trkpt>
      <trkpt lat="47.12477" lon="5.48675">
        <ele>313</ele>
        <time>2012-11-29T16:38:41Z</time>
      </trkpt>
      <trkpt lat="47.1247" lon="5.48678">
        <ele>313</ele>
        <time>2012-11-29T16:38:49Z</time>
      </trkpt>
      <trkpt lat="47.12457" lon="5.48666">
        <ele>312</ele>
        <time>2012-11-29T16:39:03Z</time>
      </trkpt>
      <trkpt lat="47.1246" lon="5.48654">
        <ele>312</ele>
        <time>2012-11-29T16:39:18Z</time>
      </trkpt>
      <trkpt lat="47.12454" lon="5.48643">
        <ele>311</ele>
        <time>2012-11-29T16:39:33Z</time>
      </trkpt>
      <trkpt lat="47.1245" lon="5.48621">
        <ele>309</ele>
        <time>2012-11-29T16:39:49Z</time>
      </trkpt>
      <trkpt lat="47.12456" lon="5.48608">
        <ele>309</ele>
        <time>2012-11-29T16:40:05Z</time>
      </trkpt>
      <trkpt lat="47.12468" lon="5.48601">
        <ele>310</ele>
        <time>2012-11-29T16:40:21Z</time>
      </trkpt>
      <trkpt lat="47.12489" lon="5.48595">
        <ele>310</ele>
        <time>2012-11-29T16:40:40Z</time>
      </trkpt>
      <trkpt lat="47.12501" lon="5.48574">
        <ele>309</ele>
        <time>2012-11-29T16:41:02Z</time>
      </trkpt>
      <trkpt lat="47.12505" lon="5.48569">
        <ele>309</ele>
        <time>2012-11-29T16:41:05Z</time>
      </trkpt>
      <trkpt lat="47.1251" lon="5.48549">
        <ele>308</ele>
        <time>2012-11-29T16:41:19Z</time>
      </trkpt>
      <trkpt lat="47.12516" lon="5.48528">
        <ele>307</ele>
        <time>2012-11-29T16:41:34Z</time>
      </trkpt>
      <trkpt lat="47.12519" lon="5.48527">
        <ele>307</ele>
        <time>2012-11-29T16:41:36Z</time>
      </trkpt>
      <trkpt lat="47.12539" lon="5.48511">
        <ele>307</ele>
        <time>2012-11-29T16:41:54Z</time>
      </trkpt>
      <trkpt lat="47.12531" lon="5.48481">
        <ele>306</ele>
        <time>2012-11-29T16:42:10Z</time>
      </trkpt>
      <trkpt lat="47.12525" lon="5.48466">
        <ele>305</ele>
        <time>2012-11-29T16:42:22Z</time>
      </trkpt>
      <trkpt lat="47.1253" lon="5.4845">
        <ele>305</ele>
        <time>2012-11-29T16:42:37Z</time>
      </trkpt>
      <trkpt lat="47.12545" lon="5.48445">
        <ele>306</ele>
        <time>2012-11-29T16:42:50Z</time>
      </trkpt>
      <trkpt lat="47.12558" lon="5.48425">
        <ele>306</ele>
        <time>2012-11-29T16:43:08Z</time>
      </trkpt>
      <trkpt lat="47.12558" lon="5.48395">
        <ele>304</ele>
        <time>2012-11-29T16:43:29Z</time>
      </trkpt>
      <trkpt lat="47.12556" lon="5.48364">
        <ele>302</ele>
        <time>2012-11-29T16:43:49Z</time>
      </trkpt>
      <trkpt lat="47.12569" lon="5.48339">
        <ele>301</ele>
        <time>2012-11-29T16:44:13Z</time>
      </trkpt>
      <trkpt lat="47.12576" lon="5.48312">
        <ele>300</ele>
        <time>2012-11-29T16:44:31Z</time>
      </trkpt>
      <trkpt lat="47.126" lon="5.48313">
        <ele>302</ele>
        <time>2012-11-29T16:44:53Z</time>
      </trkpt>
      <trkpt lat="47.12621" lon="5.48309">
        <ele>303</ele>
        <time>2012-11-29T16:45:15Z</time>
      </trkpt>
      <trkpt lat="47.12627" lon="5.4829">
        <ele>302</ele>
        <time>2012-11-29T16:45:30Z</time>
      </trkpt>
      <trkpt lat="47.12643" lon="5.48258">
        <ele>300</ele>
        <time>2012-11-29T16:45:50Z</time>
      </trkpt>
      <trkpt lat="47.12652" lon="5.48233">
        <ele>299</ele>
        <time>2012-11-29T16:46:09Z</time>
      </trkpt>
      <trkpt lat="47.12657" lon="5.48226">
        <ele>299</ele>
        <time>2012-11-29T16:46:13Z</time>
      </trkpt>
      <trkpt lat="47.12664" lon="5.48207">
        <ele>299</ele>
        <time>2012-11-29T16:46:24Z</time>
      </trkpt>
      <trkpt lat="47.1267" lon="5.48182">
        <ele>300</ele>
        <time>2012-11-29T16:46:40Z</time>
      </trkpt>
      <trkpt lat="47.1267" lon="5.4817">
        <ele>300</ele>
        <time>2012-11-29T16:46:47Z</time>
      </trkpt>
      <trkpt lat="47.1269" lon="5.48145">
        <ele>301</ele>
        <time>2012-11-29T16:47:06Z</time>
      </trkpt>
      <trkpt lat="47.12708" lon="5.48131">
        <ele>302</ele>
        <time>2012-11-29T16:47:29Z</time>
      </trkpt>
      <trkpt lat="47.12709" lon="5.48135">
        <ele>302</ele>
        <time>2012-11-29T16:47:33Z</time>
      </trkpt>
      <trkpt lat="47.12713" lon="5.48138">
        <ele>303</ele>
        <time>2012-11-29T16:47:37Z</time>
      </trkpt>
      <trkpt lat="47.1272" lon="5.4814">
        <ele>303</ele>
        <time>2012-11-29T16:47:42Z</time>
      </trkpt>
      <trkpt lat="47.12741" lon="5.48155">
        <ele>305</ele>
        <time>2012-11-29T16:48:03Z</time>
      </trkpt>
      <trkpt lat="47.1276" lon="5.4817">
        <ele>308</ele>
        <time>2012-11-29T16:48:22Z</time>
      </trkpt>
      <trkpt lat="47.12778" lon="5.48179">
        <ele>309</ele>
        <time>2012-11-29T16:48:38Z</time>
      </trkpt>
      <trkpt lat="47.128" lon="5.48197">
        <ele>311</ele>
        <time>2012-11-29T16:48:59Z</time>
      </trkpt>
      <trkpt lat="47.12825" lon="5.48228">
        <ele>314</ele>
        <time>2012-11-29T16:49:25Z</time>
      </trkpt>
      <trkpt lat="47.1284" lon="5.48241">
        <ele>314</ele>
        <time>2012-11-29T16:49:40Z</time>
      </trkpt>
      <trkpt lat="47.12861" lon="5.48272">
        <ele>315</ele>
        <time>2012-11-29T16:50:03Z</time>
      </trkpt>
      <trkpt lat="47.12873" lon="5.48286">
        <ele>316</ele>
        <time>2012-11-29T16:50:15Z</time>
      </trkpt>
      <trkpt lat="47.12893" lon="5.48314">
        <ele>316</ele>
        <time>2012-11-29T16:50:36Z</time>
      </trkpt>
      <trkpt lat="47.12919" lon="5.48331">
        <ele>317</ele>
        <time>2012-11-29T16:50:58Z</time>
      </trkpt>
      <trkpt lat="47.12942" lon="5.48347">
        <ele>317</ele>
        <time>2012-11-29T16:51:18Z</time>
      </trkpt>
      <trkpt lat="47.1296" lon="5.48335">
        <ele>318</ele>
        <time>2012-11-29T16:51:36Z</time>
      </trkpt>
      <trkpt lat="47.12962" lon="5.48332">
        <ele>317</ele>
        <time>2012-11-29T16:51:38Z</time>
      </trkpt>
      <trkpt lat="47.12963" lon="5.48332">
        <ele>318</ele>
        <time>2012-11-29T16:51:40Z</time>
      </trkpt>
      <trkpt lat="47.12987" lon="5.48306">
        <ele>316</ele>
        <time>2012-11-29T16:52:05Z</time>
      </trkpt>
      <trkpt lat="47.12997" lon="5.48295">
        <ele>316</ele>
        <time>2012-11-29T16:52:16Z</time>
      </trkpt>
      <trkpt lat="47.13001" lon="5.48291">
        <ele>316</ele>
        <time>2012-11-29T16:52:20Z</time>
      </trkpt>
      <trkpt lat="47.13007" lon="5.48287">
        <ele>315</ele>
        <time>2012-11-29T16:52:25Z</time>
      </trkpt>
      <trkpt lat="47.13015" lon="5.48283">
        <ele>313</ele>
        <time>2012-11-29T16:52:33Z</time>
      </trkpt>
      <trkpt lat="47.13022" lon="5.48272">
        <ele>312</ele>
        <time>2012-11-29T16:52:46Z</time>
      </trkpt>
      <trkpt lat="47.13025" lon="5.48269">
        <ele>312</ele>
        <time>2012-11-29T16:52:49Z</time>
      </trkpt>
      <trkpt lat="47.13041" lon="5.48253">
        <ele>309</ele>
        <time>2012-11-29T16:53:04Z</time>
      </trkpt>
      <trkpt lat="47.13045" lon="5.48245">
        <ele>309</ele>
        <time>2012-11-29T16:53:19Z</time>
      </trkpt>
      <trkpt lat="47.13046" lon="5.48246">
        <ele>309</ele>
        <time>2012-11-29T16:55:03Z</time>
      </trkpt>
      <trkpt lat="47.13064" lon="5.48242">
        <ele>306</ele>
        <time>2012-11-29T16:55:19Z</time>
      </trkpt>
      <trkpt lat="47.13083" lon="5.4824">
        <ele>303</ele>
        <time>2012-11-29T16:55:36Z</time>
      </trkpt>
      <trkpt lat="47.13099" lon="5.48237">
        <ele>302</ele>
        <time>2012-11-29T16:55:48Z</time>
      </trkpt>
      <trkpt lat="47.13124" lon="5.48233">
        <ele>301</ele>
        <time>2012-11-29T16:56:07Z</time>
      </trkpt>
      <trkpt lat="47.13148" lon="5.48228">
        <ele>298</ele>
        <time>2012-11-29T16:56:26Z</time>
      </trkpt>
      <trkpt lat="47.13168" lon="5.48219">
        <ele>296</ele>
        <time>2012-11-29T16:56:43Z</time>
      </trkpt>
      <trkpt lat="47.13184" lon="5.48214">
        <ele>294</ele>
        <time>2012-11-29T16:56:56Z</time>
      </trkpt>
      <trkpt lat="47.13201" lon="5.48217">
        <ele>293</ele>
        <time>2012-11-29T16:57:09Z</time>
      </trkpt>
      <trkpt lat="47.13209" lon="5.48222">
        <ele>293</ele>
        <time>2012-11-29T16:57:16Z</time>
      </trkpt>
      <trkpt lat="47.13226" lon="5.48232">
        <ele>293</ele>
        <time>2012-11-29T16:57:29Z</time>
      </trkpt>
      <trkpt lat="47.13235" lon="5.48236">
        <ele>293</ele>
        <time>2012-11-29T16:57:37Z</time>
      </trkpt>
      <trkpt lat="47.13246" lon="5.4825">
        <ele>294</ele>
        <time>2012-11-29T16:57:47Z</time>
      </trkpt>
      <trkpt lat="47.13247" lon="5.48254">
        <ele>294</ele>
        <time>2012-11-29T16:57:50Z</time>
      </trkpt>
      <trkpt lat="47.13253" lon="5.48258">
        <ele>293</ele>
        <time>2012-11-29T16:57:54Z</time>
      </trkpt>
      <trkpt lat="47.13258" lon="5.48264">
        <ele>292</ele>
        <time>2012-11-29T16:58:00Z</time>
      </trkpt>
      <trkpt lat="47.13278" lon="5.48293">
        <ele>294</ele>
        <time>2012-11-29T16:58:22Z</time>
      </trkpt>
      <trkpt lat="47.13295" lon="5.48314">
        <ele>294</ele>
        <time>2012-11-29T16:58:42Z</time>
      </trkpt>
      <trkpt lat="47.13311" lon="5.48325">
        <ele>294</ele>
        <time>2012-11-29T16:58:58Z</time>
      </trkpt>
      <trkpt lat="47.13324" lon="5.48342">
        <ele>293</ele>
        <time>2012-11-29T16:59:15Z</time>
      </trkpt>
      <trkpt lat="47.13338" lon="5.4836">
        <ele>292</ele>
        <time>2012-11-29T16:59:30Z</time>
      </trkpt>
      <trkpt lat="47.13339" lon="5.48361">
        <ele>292</ele>
        <time>2012-11-29T16:59:31Z</time>
      </trkpt>
      <trkpt lat="47.13341" lon="5.48365">
        <ele>292</ele>
        <time>2012-11-29T16:59:34Z</time>
      </trkpt>
      <trkpt lat="47.13346" lon="5.48374">
        <ele>292</ele>
        <time>2012-11-29T16:59:41Z</time>
      </trkpt>
      <trkpt lat="47.13359" lon="5.48395">
        <ele>291</ele>
        <time>2012-11-29T16:59:55Z</time>
      </trkpt>
      <trkpt lat="47.13366" lon="5.48411">
        <ele>291</ele>
        <time>2012-11-29T17:00:06Z</time>
      </trkpt>
      <trkpt lat="47.13374" lon="5.48417">
        <ele>291</ele>
        <time>2012-11-29T17:00:23Z</time>
      </trkpt>
      <trkpt lat="47.13377" lon="5.48419">
        <ele>290</ele>
        <time>2012-11-29T17:00:35Z</time>
      </trkpt>
      <trkpt lat="47.13375" lon="5.48399">
        <ele>288</ele>
        <time>2012-11-29T17:00:47Z</time>
      </trkpt>
      <trkpt lat="47.13374" lon="5.48387">
        <ele>287</ele>
        <time>2012-11-29T17:00:53Z</time>
      </trkpt>
      <trkpt lat="47.1337" lon="5.48367">
        <ele>287</ele>
        <time>2012-11-29T17:01:03Z</time>
      </trkpt>
      <trkpt lat="47.1337" lon="5.48362">
        <ele>287</ele>
        <time>2012-11-29T17:01:06Z</time>
      </trkpt>
      <trkpt lat="47.13367" lon="5.48352">
        <ele>286</ele>
        <time>2012-11-29T17:01:12Z</time>
      </trkpt>
      <trkpt lat="47.13365" lon="5.48341">
        <ele>287</ele>
        <time>2012-11-29T17:01:18Z</time>
      </trkpt>
      <trkpt lat="47.13361" lon="5.48336">
        <ele>286</ele>
        <time>2012-11-29T17:01:22Z</time>
      </trkpt>
      <trkpt lat="47.13357" lon="5.48326">
        <ele>286</ele>
        <time>2012-11-29T17:01:29Z</time>
      </trkpt>
      <trkpt lat="47.13351" lon="5.48311">
        <ele>286</ele>
        <time>2012-11-29T17:01:39Z</time>
      </trkpt>
      <trkpt lat="47.13351" lon="5.48308">
        <ele>286</ele>
        <time>2012-11-29T17:01:53Z</time>
      </trkpt>
      <trkpt lat="47.1335" lon="5.48302">
        <ele>286</ele>
        <time>2012-11-29T17:01:56Z</time>
      </trkpt>
      <trkpt lat="47.13343" lon="5.48285">
        <ele>286</ele>
        <time>2012-11-29T17:02:04Z</time>
      </trkpt>
      <trkpt lat="47.1334" lon="5.48277">
        <ele>286</ele>
        <time>2012-11-29T17:02:08Z</time>
      </trkpt>
      <trkpt lat="47.13336" lon="5.48275">
        <ele>285</ele>
        <time>2012-11-29T17:02:11Z</time>
      </trkpt>
      <trkpt lat="47.13334" lon="5.48269">
        <ele>285</ele>
        <time>2012-11-29T17:02:14Z</time>
      </trkpt>
      <trkpt lat="47.13332" lon="5.48264">
        <ele>284</ele>
        <time>2012-11-29T17:02:17Z</time>
      </trkpt>
      <trkpt lat="47.13331" lon="5.48258">
        <ele>284</ele>
        <time>2012-11-29T17:02:20Z</time>
      </trkpt>
      <trkpt lat="47.13327" lon="5.48239">
        <ele>284</ele>
        <time>2012-11-29T17:02:32Z</time>
      </trkpt>
      <trkpt lat="47.13314" lon="5.48211">
        <ele>283</ele>
        <time>2012-11-29T17:02:48Z</time>
      </trkpt>
      <trkpt lat="47.13311" lon="5.48202">
        <ele>283</ele>
        <time>2012-11-29T17:02:54Z</time>
      </trkpt>
      <trkpt lat="47.13306" lon="5.48196">
        <ele>282</ele>
        <time>2012-11-29T17:03:00Z</time>
      </trkpt>
      <trkpt lat="47.13301" lon="5.4819">
        <ele>283</ele>
        <time>2012-11-29T17:03:05Z</time>
      </trkpt>
      <trkpt lat="47.13295" lon="5.48185">
        <ele>283</ele>
        <time>2012-11-29T17:03:10Z</time>
      </trkpt>
      <trkpt lat="47.1329" lon="5.48171">
        <ele>282</ele>
        <time>2012-11-29T17:03:18Z</time>
      </trkpt>
      <trkpt lat="47.13271" lon="5.48144">
        <ele>282</ele>
        <time>2012-11-29T17:03:39Z</time>
      </trkpt>
      <trkpt lat="47.13266" lon="5.48134">
        <ele>282</ele>
        <time>2012-11-29T17:03:46Z</time>
      </trkpt>
      <trkpt lat="47.13257" lon="5.48118">
        <ele>282</ele>
        <time>2012-11-29T17:03:58Z</time>
      </trkpt>
      <trkpt lat="47.1325" lon="5.48084">
        <ele>281</ele>
        <time>2012-11-29T17:04:18Z</time>
      </trkpt>
      <trkpt lat="47.13243" lon="5.48058">
        <ele>280</ele>
        <time>2012-11-29T17:04:35Z</time>
      </trkpt>
      <trkpt lat="47.13237" lon="5.4804">
        <ele>280</ele>
        <time>2012-11-29T17:04:47Z</time>
      </trkpt>
      <trkpt lat="47.13231" lon="5.48019">
        <ele>280</ele>
        <time>2012-11-29T17:04:59Z</time>
      </trkpt>
      <trkpt lat="47.13222" lon="5.47993">
        <ele>282</ele>
        <time>2012-11-29T17:05:16Z</time>
      </trkpt>
      <trkpt lat="47.13213" lon="5.47975">
        <ele>284</ele>
        <time>2012-11-29T17:05:31Z</time>
      </trkpt>
      <trkpt lat="47.13205" lon="5.47966">
        <ele>286</ele>
        <time>2012-11-29T17:05:45Z</time>
      </trkpt>
      <trkpt lat="47.13195" lon="5.47949">
        <ele>288</ele>
        <time>2012-11-29T17:06:02Z</time>
      </trkpt>
      <trkpt lat="47.13194" lon="5.47947">
        <ele>288</ele>
        <time>2012-11-29T17:06:04Z</time>
      </trkpt>
      <trkpt lat="47.13186" lon="5.47937">
        <ele>289</ele>
        <time>2012-11-29T17:06:12Z</time>
      </trkpt>
      <trkpt lat="47.13177" lon="5.4792">
        <ele>291</ele>
        <time>2012-11-29T17:06:29Z</time>
      </trkpt>
      <trkpt lat="47.13172" lon="5.47916">
        <ele>292</ele>
        <time>2012-11-29T17:06:34Z</time>
      </trkpt>
      <trkpt lat="47.1317" lon="5.47914">
        <ele>292</ele>
        <time>2012-11-29T17:06:37Z</time>
      </trkpt>
      <trkpt lat="47.13163" lon="5.47904">
        <ele>294</ele>
        <time>2012-11-29T17:06:51Z</time>
      </trkpt>
      <trkpt lat="47.1315" lon="5.47893">
        <ele>296</ele>
        <time>2012-11-29T17:07:06Z</time>
      </trkpt>
      <trkpt lat="47.1314" lon="5.47884">
        <ele>298</ele>
        <time>2012-11-29T17:07:20Z</time>
      </trkpt>
      <trkpt lat="47.1313" lon="5.47873">
        <ele>300</ele>
        <time>2012-11-29T17:07:36Z</time>
      </trkpt>
      <trkpt lat="47.13125" lon="5.4786">
        <ele>300</ele>
        <time>2012-11-29T17:07:49Z</time>
      </trkpt>
      <trkpt lat="47.1311" lon="5.47852">
        <ele>302</ele>
        <time>2012-11-29T17:08:08Z</time>
      </trkpt>
      <trkpt lat="47.13103" lon="5.47835">
        <ele>303</ele>
        <time>2012-11-29T17:08:21Z</time>
      </trkpt>
      <trkpt lat="47.131" lon="5.47831">
        <ele>303</ele>
        <time>2012-11-29T17:08:24Z</time>
      </trkpt>
      <trkpt lat="47.13095" lon="5.47825">
        <ele>304</ele>
        <time>2012-11-29T17:08:29Z</time>
      </trkpt>
      <trkpt lat="47.13081" lon="5.47807">
        <ele>305</ele>
        <time>2012-11-29T17:08:46Z</time>
      </trkpt>
      <trkpt lat="47.1308" lon="5.47807">
        <ele>305</ele>
        <time>2012-11-29T17:08:47Z</time>
      </trkpt>
      <trkpt lat="47.1307" lon="5.47793">
        <ele>306</ele>
        <time>2012-11-29T17:09:03Z</time>
      </trkpt>
      <trkpt lat="47.13067" lon="5.47795">
        <ele>307</ele>
        <time>2012-11-29T17:09:09Z</time>
      </trkpt>
      <trkpt lat="47.13067" lon="5.47797">
        <ele>307</ele>
        <time>2012-11-29T17:09:13Z</time>
      </trkpt>
      <trkpt lat="47.13052" lon="5.47799">
        <ele>308</ele>
        <time>2012-11-29T17:09:29Z</time>
      </trkpt>
      <trkpt lat="47.13037" lon="5.47791">
        <ele>309</ele>
        <time>2012-11-29T17:09:45Z</time>
      </trkpt>
      <trkpt lat="47.13035" lon="5.47786">
        <ele>310</ele>
        <time>2012-11-29T17:09:47Z</time>
      </trkpt>
      <trkpt lat="47.13019" lon="5.47762">
        <ele>311</ele>
        <time>2012-11-29T17:10:05Z</time>
      </trkpt>
      <trkpt lat="47.13015" lon="5.47762">
        <ele>311</ele>
        <time>2012-11-29T17:10:09Z</time>
      </trkpt>
      <trkpt lat="47.13001" lon="5.4774">
        <ele>313</ele>
        <time>2012-11-29T17:10:27Z</time>
      </trkpt>
      <trkpt lat="47.12997" lon="5.47736">
        <ele>312</ele>
        <time>2012-11-29T17:10:31Z</time>
      </trkpt>
      <trkpt lat="47.12983" lon="5.47718">
        <ele>314</ele>
        <time>2012-11-29T17:10:50Z</time>
      </trkpt>
      <trkpt lat="47.12977" lon="5.47712">
        <ele>314</ele>
        <time>2012-11-29T17:10:57Z</time>
      </trkpt>
      <trkpt lat="47.12977" lon="5.47709">
        <ele>315</ele>
        <time>2012-11-29T17:10:59Z</time>
      </trkpt>
      <trkpt lat="47.12964" lon="5.47702">
        <ele>316</ele>
        <time>2012-11-29T17:11:13Z</time>
      </trkpt>
      <trkpt lat="47.1295" lon="5.47698">
        <ele>317</ele>
        <time>2012-11-29T17:11:30Z</time>
      </trkpt>
      <trkpt lat="47.12946" lon="5.47694">
        <ele>318</ele>
        <time>2012-11-29T17:11:35Z</time>
      </trkpt>
      <trkpt lat="47.12942" lon="5.47692">
        <ele>318</ele>
        <time>2012-11-29T17:11:38Z</time>
      </trkpt>
      <trkpt lat="47.12931" lon="5.47688">
        <ele>320</ele>
        <time>2012-11-29T17:11:52Z</time>
      </trkpt>
      <trkpt lat="47.12924" lon="5.47685">
        <ele>320</ele>
        <time>2012-11-29T17:12:00Z</time>
      </trkpt>
      <trkpt lat="47.12912" lon="5.47682">
        <ele>322</ele>
        <time>2012-11-29T17:12:11Z</time>
      </trkpt>
      <trkpt lat="47.1291" lon="5.47681">
        <ele>322</ele>
        <time>2012-11-29T17:12:13Z</time>
      </trkpt>
      <trkpt lat="47.12903" lon="5.47679">
        <ele>323</ele>
        <time>2012-11-29T17:12:20Z</time>
      </trkpt>
      <trkpt lat="47.12891" lon="5.47677">
        <ele>323</ele>
        <time>2012-11-29T17:12:32Z</time>
      </trkpt>
      <trkpt lat="47.12887" lon="5.47675">
        <ele>324</ele>
        <time>2012-11-29T17:12:37Z</time>
      </trkpt>
      <trkpt lat="47.12874" lon="5.47663">
        <ele>325</ele>
        <time>2012-11-29T17:12:54Z</time>
      </trkpt>
      <trkpt lat="47.1287" lon="5.47659">
        <ele>325</ele>
        <time>2012-11-29T17:13:00Z</time>
      </trkpt>
      <trkpt lat="47.12863" lon="5.47648">
        <ele>326</ele>
        <time>2012-11-29T17:13:09Z</time>
      </trkpt>
      <trkpt lat="47.1286" lon="5.47642">
        <ele>326</ele>
        <time>2012-11-29T17:13:14Z</time>
      </trkpt>
      <trkpt lat="47.12857" lon="5.47637">
        <ele>326</ele>
        <time>2012-11-29T17:13:18Z</time>
      </trkpt>
      <trkpt lat="47.12844" lon="5.47625">
        <ele>327</ele>
        <time>2012-11-29T17:13:33Z</time>
      </trkpt>
      <trkpt lat="47.12837" lon="5.4761">
        <ele>327</ele>
        <time>2012-11-29T17:13:47Z</time>
      </trkpt>
      <trkpt lat="47.12832" lon="5.47599">
        <ele>328</ele>
        <time>2012-11-29T17:13:57Z</time>
      </trkpt>
      <trkpt lat="47.12821" lon="5.47587">
        <ele>328</ele>
        <time>2012-11-29T17:14:09Z</time>
      </trkpt>
      <trkpt lat="47.12809" lon="5.4757">
        <ele>328</ele>
        <time>2012-11-29T17:14:22Z</time>
      </trkpt>
      <trkpt lat="47.12795" lon="5.47546">
        <ele>330</ele>
        <time>2012-11-29T17:14:39Z</time>
      </trkpt>
      <trkpt lat="47.12775" lon="5.47514">
        <ele>331</ele>
        <time>2012-11-29T17:15:01Z</time>
      </trkpt>
      <trkpt lat="47.12763" lon="5.47502">
        <ele>331</ele>
        <time>2012-11-29T17:15:11Z</time>
      </trkpt>
      <trkpt lat="47.12761" lon="5.475">
        <ele>330</ele>
        <time>2012-11-29T17:15:13Z</time>
      </trkpt>
      <trkpt lat="47.12747" lon="5.47494">
        <ele>331</ele>
        <time>2012-11-29T17:15:26Z</time>
      </trkpt>
      <trkpt lat="47.12732" lon="5.47483">
        <ele>332</ele>
        <time>2012-11-29T17:15:39Z</time>
      </trkpt>
      <trkpt lat="47.12711" lon="5.47477">
        <ele>334</ele>
        <time>2012-11-29T17:15:56Z</time>
      </trkpt>
      <trkpt lat="47.12686" lon="5.47484">
        <ele>336</ele>
        <time>2012-11-29T17:16:12Z</time>
      </trkpt>
      <trkpt lat="47.12678" lon="5.47493">
        <ele>337</ele>
        <time>2012-11-29T17:16:19Z</time>
      </trkpt>
      <trkpt lat="47.12675" lon="5.47502">
        <ele>338</ele>
        <time>2012-11-29T17:16:26Z</time>
      </trkpt>
      <trkpt lat="47.12673" lon="5.47504">
        <ele>338</ele>
        <time>2012-11-29T17:16:28Z</time>
      </trkpt>
      <trkpt lat="47.1267" lon="5.47508">
        <ele>339</ele>
        <time>2012-11-29T17:16:31Z</time>
      </trkpt>
      <trkpt lat="47.12665" lon="5.47511">
        <ele>339</ele>
        <time>2012-11-29T17:16:35Z</time>
      </trkpt>
      <trkpt lat="47.12638" lon="5.47507">
        <ele>340</ele>
        <time>2012-11-29T17:16:52Z</time>
      </trkpt>
      <trkpt lat="47.1261" lon="5.47494">
        <ele>340</ele>
        <time>2012-11-29T17:17:11Z</time>
      </trkpt>
      <trkpt lat="47.12605" lon="5.47493">
        <ele>340</ele>
        <time>2012-11-29T17:17:14Z</time>
      </trkpt>
      <trkpt lat="47.12585" lon="5.47499">
        <ele>341</ele>
        <time>2012-11-29T17:17:23Z</time>
      </trkpt>
      <trkpt lat="47.12581" lon="5.47502">
        <ele>341</ele>
        <time>2012-11-29T17:17:25Z</time>
      </trkpt>
      <trkpt lat="47.1257" lon="5.47498">
        <ele>341</ele>
        <time>2012-11-29T17:17:36Z</time>
      </trkpt>
      <trkpt lat="47.12555" lon="5.47506">
        <ele>341</ele>
        <time>2012-11-29T17:17:47Z</time>
      </trkpt>
      <trkpt lat="47.12539" lon="5.47508">
        <ele>340</ele>
        <time>2012-11-29T17:17:58Z</time>
      </trkpt>
      <trkpt lat="47.12512" lon="5.47504">
        <ele>340</ele>
        <time>2012-11-29T17:18:13Z</time>
      </trkpt>
      <trkpt lat="47.12496" lon="5.47503">
        <ele>340</ele>
        <time>2012-11-29T17:18:26Z</time>
      </trkpt>
      <trkpt lat="47.12495" lon="5.47497">
        <ele>340</ele>
        <time>2012-11-29T17:18:27Z</time>
      </trkpt>
      <trkpt lat="47.12491" lon="5.47492">
        <ele>340</ele>
        <time>2012-11-29T17:18:30Z</time>
      </trkpt>
      <trkpt lat="47.12482" lon="5.47487">
        <ele>340</ele>
        <time>2012-11-29T17:18:37Z</time>
      </trkpt>
      <trkpt lat="47.12482" lon="5.47456">
        <ele>339</ele>
        <time>2012-11-29T17:18:53Z</time>
      </trkpt>
      <trkpt lat="47.1248" lon="5.47452">
        <ele>340</ele>
        <time>2012-11-29T17:19:11Z</time>
      </trkpt>
      <trkpt lat="47.12476" lon="5.47451">
        <ele>339</ele>
        <time>2012-11-29T17:19:32Z</time>
      </trkpt>
      <trkpt lat="47.12476" lon="5.47451">
        <ele>339</ele>
        <time>2012-11-29T17:19:58Z</time>
      </trkpt>
      <trkpt lat="47.1248" lon="5.47455">
        <ele>340</ele>
        <time>2012-11-29T17:20:15Z</time>
      </trkpt>
      <trkpt lat="47.1248" lon="5.47455">
        <ele>340</ele>
        <time>2012-11-29T17:20:40Z</time>
      </trkpt>
    </trkseg>
  </trk>
</gpx>